Observation data for Dell City 1N on 06/25/2019      Previous  Date  Next       Current Mesonet Observations  Soil Data  Daily Summary Page  Observations in Plain Language
KDC1 250500Z 00004KT 23/M02 A2994 RMK A01 T02251019  RH  019%=      5-min Rain = 0
KDC1 250501Z 03004KT 22/M01 A2994 RMK A01 T02231013  RH  021%=      5-min Rain = 0
KDC1 250502Z 06006KT 22/M01 A2994 RMK A01 T02191013  RH  021%=      5-min Rain = 0
KDC1 250503Z 06007KT 22/M01 A2994 RMK A01 T02161011  RH  022%=      5-min Rain = 0
KDC1 250504Z 04006KT 22/M02 A2994 RMK A01 T02171023  RH  020%=      5-min Rain = 0
KDC1 250505Z 04006KT 22/M02 A2994 RMK A01 T02241024  RH  019%=      5-min Rain = 0
KDC1 250506Z 04006KT 23/M03 A2994 RMK A01 T02261025  RH  019%=      5-min Rain = 0
KDC1 250507Z 03005KT 23/M03 A2994 RMK A01 T02261026  RH  018%=      5-min Rain = 0
KDC1 250508Z 01004KT 23/M03 A2994 RMK A01 T02261029  RH  018%=      5-min Rain = 0
KDC1 250509Z 01004KT 23/M03 A2994 RMK A01 T02261030  RH  018%=      5-min Rain = 0
KDC1 250510Z 01004KT 23/M03 A2994 RMK A01 T02261031  RH  018%=      5-min Rain = 0
KDC1 250511Z 00004KT 23/M03 A2994 RMK A01 T02261030  RH  018%=      5-min Rain = 0
KDC1 250512Z 36004KT 23/M03 A2994 RMK A01 T02251028  RH  018%=      5-min Rain = 0
KDC1 250513Z 35004KT 23/M03 A2994 RMK A01 T02251031  RH  018%=      5-min Rain = 0
KDC1 250514Z 00004KT 23/M03 A2994 RMK A01 T02251032  RH  018%=      5-min Rain = 0
KDC1 250515Z 35004KT 23/M03 A2994 RMK A01 T02251033  RH  018%=      5-min Rain = 0
KDC1 250516Z 35003KT 23/M04 A2994 RMK A01 T02251036  RH  017%=      5-min Rain = 0
KDC1 250517Z 35003KT 23/M04 A2994 RMK A01 T02251038  RH  017%=      5-min Rain = 0
KDC1 250518Z 34003KT 23/M04 A2994 RMK A01 T02251039  RH  017%=      5-min Rain = 0
KDC1 250519Z 34003KT 23/M04 A2994 RMK A01 T02251039  RH  017%=      5-min Rain = 0
KDC1 250520Z 33003KT 23/M04 A2994 RMK A01 T02261038  RH  017%=      5-min Rain = 0
KDC1 250521Z 33003KT 23/M04 A2994 RMK A01 T02281036  RH  017%=      5-min Rain = 0
KDC1 250522Z 32004KT 23/M04 A2994 RMK A01 T02291038  RH  016%=      5-min Rain = 0
KDC1 250523Z 31004KT 23/M04 A2994 RMK A01 T02311043  RH  016%=      5-min Rain = 0
KDC1 250524Z 31004KT 23/M05 A2994 RMK A01 T02341047  RH  015%=      5-min Rain = 0
KDC1 250525Z 31004KT 24/M05 A2994 RMK A01 T02351047  RH  015%=      5-min Rain = 0
KDC1 250526Z 31004KT 24/M04 A2994 RMK A01 T02361041  RH  016%=      5-min Rain = 0
KDC1 250527Z 31005KT 23/M04 A2994 RMK A01 T02341040  RH  016%=      5-min Rain = 0
KDC1 250528Z 31005KT 23/M04 A2994 RMK A01 T02311043  RH  016%=      5-min Rain = 0
KDC1 250529Z 31005KT 23/M04 A2994 RMK A01 T02321042  RH  016%=      5-min Rain = 0
KDC1 250530Z 31005KT 23/M04 A2994 RMK A01 T02331036  RH  016%=      5-min Rain = 0
KDC1 250531Z 31005KT 23/M03 A2994 RMK A01 T02321031  RH  017%=      5-min Rain = 0
KDC1 250532Z 31005KT 23/M02 A2994 RMK A01 T02291023  RH  018%=      5-min Rain = 0
KDC1 250533Z 31005KT 23/M02 A2994 RMK A01 T02271022  RH  019%=      5-min Rain = 0
KDC1 250534Z 31006KT 22/M02 A2994 RMK A01 T02231019  RH  020%=      5-min Rain = 0
KDC1 250535Z 31005KT 22/M02 A2994 RMK A01 T02181020  RH  020%=      5-min Rain = 0
KDC1 250536Z 31006KT 21/M02 A2994 RMK A01 T02141022  RH  020%=      5-min Rain = 0
KDC1 250537Z 31006KT 21/M02 A2994 RMK A01 T02111023  RH  021%=      5-min Rain = 0
KDC1 250538Z 31006KT 21/M02 A2994 RMK A01 T02091023  RH  021%=      5-min Rain = 0
KDC1 250539Z 30006KT 21/M03 A2994 RMK A01 T02081025  RH  021%=      5-min Rain = 0
KDC1 250540Z 30006KT 21/M03 A2994 RMK A01 T02081025  RH  021%=      5-min Rain = 0
KDC1 250541Z 30007KT 21/M02 A2994 RMK A01 T02061023  RH  021%=      5-min Rain = 0
KDC1 250542Z 30007KT 20/M02 A2994 RMK A01 T02031021  RH  022%=      5-min Rain = 0
KDC1 250543Z 30008KT 20/M02 A2994 RMK A01 T02001018  RH  023%=      5-min Rain = 0
KDC1 250544Z 30007KT 20/M02 A2994 RMK A01 T01981017  RH  023%=      5-min Rain = 0
KDC1 250545Z 30007KT 20/M02 A2994 RMK A01 T01971017  RH  024%=      5-min Rain = 0
KDC1 250546Z 30007KT 20/M02 A2994 RMK A01 T01961017  RH  024%=      5-min Rain = 0
KDC1 250547Z 30008KT 20/M02 A2994 RMK A01 T01961019  RH  023%=      5-min Rain = 0
KDC1 250548Z 31008KT 20/M02 A2994 RMK A01 T01951019  RH  024%=      5-min Rain = 0
KDC1 250549Z 31008KT 19/M02 A2994 RMK A01 T01941017  RH  024%=      5-min Rain = 0
KDC1 250550Z 31007KT 19/M02 A2994 RMK A01 T01931017  RH  024%=      5-min Rain = 0
KDC1 250551Z 31007KT 19/M02 A2994 RMK A01 T01921017  RH  024%=      5-min Rain = 0
KDC1 250552Z 30007KT 19/M02 A2994 RMK A01 T01921016  RH  024%=      5-min Rain = 0
KDC1 250553Z 30007KT 19/M02 A2993 RMK A01 T01921016  RH  024%=      5-min Rain = 0
KDC1 250554Z 30007KT 19/M02 A2993 RMK A01 T01931016  RH  024%=      5-min Rain = 0
KDC1 250555Z 30007KT 19/M02 A2993 RMK A01 T01941015  RH  024%=      5-min Rain = 0
KDC1 250556Z 30007KT 20/M01 A2993 RMK A01 T01951014  RH  024%=      5-min Rain = 0
KDC1 250557Z 30007KT 20/M01 A2993 RMK A01 T01951013  RH  025%=      5-min Rain = 0
KDC1 250558Z 31007KT 20/M01 A2993 RMK A01 T01951012  RH  025%=      5-min Rain = 0
KDC1 250559Z 30006KT 20/M01 A2993 RMK A01 T01951011  RH  025%=      5-min Rain = 0
KDC1 250600Z 30007KT 20/M01 A2993 RMK A01 T01951010  RH  025%=      5-min Rain = 0
KDC1 250601Z 30007KT 19/M01 A2993 RMK A01 T01941009  RH  025%=      5-min Rain = 0
KDC1 250602Z 30007KT 19/M01 A2993 RMK A01 T01941007  RH  026%=      5-min Rain = 0
KDC1 250603Z 30007KT 19/M01 A2993 RMK A01 T01931006  RH  026%=      5-min Rain = 0
KDC1 250604Z 30007KT 19/M01 A2993 RMK A01 T01921006  RH  026%=      5-min Rain = 0
KDC1 250605Z 30007KT 19/M01 A2993 RMK A01 T01911005  RH  027%=      5-min Rain = 0
KDC1 250606Z 30007KT 19/M01 A2993 RMK A01 T01911005  RH  027%=      5-min Rain = 0
KDC1 250607Z 30007KT 19/M01 A2993 RMK A01 T01901005  RH  027%=      5-min Rain = 0
KDC1 250608Z 30007KT 19/M01 A2993 RMK A01 T01901006  RH  027%=      5-min Rain = 0
KDC1 250609Z 30008KT 19/M01 A2993 RMK A01 T01901007  RH  026%=      5-min Rain = 0
KDC1 250610Z 30008KT 19/M01 A2993 RMK A01 T01901010  RH  026%=      5-min Rain = 0
KDC1 250611Z 30008KT 19/M01 A2993 RMK A01 T01901012  RH  025%=      5-min Rain = 0
KDC1 250612Z 30008KT 19/M02 A2993 RMK A01 T01911015  RH  025%=      5-min Rain = 0
KDC1 250613Z 30008KT 19/M02 A2993 RMK A01 T01921016  RH  025%=      5-min Rain = 0
KDC1 250614Z 29008KT 19/M02 A2993 RMK A01 T01921018  RH  024%=      5-min Rain = 0
KDC1 250615Z 29008KT 19/M02 A2993 RMK A01 T01931021  RH  023%=      5-min Rain = 0
KDC1 250616Z 29008KT 19/M03 A2993 RMK A01 T01941025  RH  023%=      5-min Rain = 0
KDC1 250617Z 29007KT 20/M03 A2993 RMK A01 T01951029  RH  022%=      5-min Rain = 0
KDC1 250618Z 29008KT 20/M03 A2993 RMK A01 T01961031  RH  021%=      5-min Rain = 0
KDC1 250619Z 29007KT 20/M03 A2993 RMK A01 T01961033  RH  021%=      5-min Rain = 0
KDC1 250620Z 29007KT 20/M03 A2993 RMK A01 T01971033  RH  021%=      5-min Rain = 0
KDC1 250621Z 29007KT 20/M03 A2993 RMK A01 T01971033  RH  021%=      5-min Rain = 0
KDC1 250622Z 29008KT 20/M03 A2993 RMK A01 T01961034  RH  021%=      5-min Rain = 0
KDC1 250623Z 29008KT 20/M03 A2993 RMK A01 T01961033  RH  021%=      5-min Rain = 0
KDC1 250624Z 29009KT 20/M03 A2993 RMK A01 T01951033  RH  021%=      5-min Rain = 0
KDC1 250625Z 29009KT 20/M03 A2993 RMK A01 T01951034  RH  021%=      5-min Rain = 0
KDC1 250626Z 29009KT 20/M03 A2993 RMK A01 T01951034  RH  021%=      5-min Rain = 0
KDC1 250627Z 29008KT 20/M04 A2994 RMK A01 T01951035  RH  021%=      5-min Rain = 0
KDC1 250628Z 29009KT 20/M04 A2994 RMK A01 T01951035  RH  021%=      5-min Rain = 0
KDC1 250629Z 29009KT 20/M04 A2994 RMK A01 T01951035  RH  021%=      5-min Rain = 0
KDC1 250630Z 29008KT 19/M04 A2994 RMK A01 T01941035  RH  021%=      5-min Rain = 0
KDC1 250631Z 29007KT 19/M04 A2994 RMK A01 T01941035  RH  021%=      5-min Rain = 0
KDC1 250632Z 29007KT 19/M04 A2994 RMK A01 T01941035  RH  021%=      5-min Rain = 0
KDC1 250633Z 29007KT 19/M04 A2994 RMK A01 T01931036  RH  021%=      5-min Rain = 0
KDC1 250634Z 29007KT 19/M04 A2994 RMK A01 T01931036  RH  021%=      5-min Rain = 0
KDC1 250635Z 29007KT 19/M04 A2994 RMK A01 T01921036  RH  021%=      5-min Rain = 0
KDC1 250636Z 29008KT 19/M04 A2994 RMK A01 T01921036  RH  021%=      5-min Rain = 0
KDC1 250637Z 29008KT 19/M04 A2994 RMK A01 T01911036  RH  021%=      5-min Rain = 0
KDC1 250638Z 29008KT 19/M04 A2994 RMK A01 T01911036  RH  021%=      5-min Rain = 0
KDC1 250639Z 29008KT 19/M04 A2994 RMK A01 T01901036  RH  021%=      5-min Rain = 0
KDC1 250640Z 29008KT 19/M04 A2994 RMK A01 T01901036  RH  021%=      5-min Rain = 0
KDC1 250641Z 29009KT 19/M04 A2994 RMK A01 T01901035  RH  022%=      5-min Rain = 0
KDC1 250642Z 29009KT 19/M04 A2994 RMK A01 T01891036  RH  022%=      5-min Rain = 0
KDC1 250643Z 29009KT 19/M04 A2994 RMK A01 T01881037  RH  021%=      5-min Rain = 0
KDC1 250644Z 29010KT 19/M04 A2994 RMK A01 T01881038  RH  021%=      5-min Rain = 0
KDC1 250645Z 29010KT 19/M04 A2994 RMK A01 T01891039  RH  021%=      5-min Rain = 0
KDC1 250646Z 29010KT 19/M04 A2994 RMK A01 T01891039  RH  021%=      5-min Rain = 0
KDC1 250647Z 29010KT 19/M04 A2994 RMK A01 T01901039  RH  021%=      5-min Rain = 0
KDC1 250648Z 29010KT 19/M04 A2994 RMK A01 T01901039  RH  021%=      5-min Rain = 0
KDC1 250649Z 29010KT 19/M04 A2994 RMK A01 T01901040  RH  021%=      5-min Rain = 0
KDC1 250650Z 29010KT 19/M04 A2994 RMK A01 T01901040  RH  021%=      5-min Rain = 0
KDC1 250651Z 29010KT 19/M04 A2994 RMK A01 T01901040  RH  021%=      5-min Rain = 0
KDC1 250652Z 29010KT 19/M04 A2994 RMK A01 T01901040  RH  021%=      5-min Rain = 0
KDC1 250653Z 29011KT 19/M04 A2993 RMK A01 T01901040  RH  021%=      5-min Rain = 0
KDC1 250654Z 29010KT 19/M04 A2993 RMK A01 T01901040  RH  021%=      5-min Rain = 0
KDC1 250655Z 29011KT 19/M04 A2993 RMK A01 T01911040  RH  021%=      5-min Rain = 0
KDC1 250656Z 29010KT 19/M04 A2993 RMK A01 T01911040  RH  021%=      5-min Rain = 0
KDC1 250657Z 29010KT 19/M04 A2993 RMK A01 T01911040  RH  020%=      5-min Rain = 0
KDC1 250658Z 29010KT 19/M04 A2993 RMK A01 T01931039  RH  020%=      5-min Rain = 0
KDC1 250659Z 29010KT 19/M04 A2993 RMK A01 T01931039  RH  020%=      5-min Rain = 0
KDC1 250700Z 29009KT 19/M04 A2993 RMK A01 T01931039  RH  021%=      5-min Rain = 0
KDC1 250701Z 29009KT 19/M04 A2993 RMK A01 T01941038  RH  021%=      5-min Rain = 0
KDC1 250702Z 29009KT 19/M04 A2993 RMK A01 T01941037  RH  021%=      5-min Rain = 0
KDC1 250703Z 29009KT 19/M04 A2993 RMK A01 T01941037  RH  021%=      5-min Rain = 0
KDC1 250704Z 29009KT 20/M04 A2993 RMK A01 T01951036  RH  021%=      5-min Rain = 0
KDC1 250705Z 29009KT 20/M04 A2993 RMK A01 T01951036  RH  021%=      5-min Rain = 0
KDC1 250706Z 29008KT 20/M04 A2993 RMK A01 T01951036  RH  021%=      5-min Rain = 0
KDC1 250707Z 29009KT 20/M04 A2993 RMK A01 T01951036  RH  021%=      5-min Rain = 0
KDC1 250708Z 29008KT 19/M04 A2993 RMK A01 T01941036  RH  021%=      5-min Rain = 0
KDC1 250709Z 29008KT 19/M04 A2993 RMK A01 T01941035  RH  021%=      5-min Rain = 0
KDC1 250710Z 29008KT 19/M03 A2993 RMK A01 T01941034  RH  021%=      5-min Rain = 0
KDC1 250711Z 29008KT 19/M03 A2993 RMK A01 T01931033  RH  021%=      5-min Rain = 0
KDC1 250712Z 29007KT 19/M03 A2993 RMK A01 T01921032  RH  022%=      5-min Rain = 0
KDC1 250713Z 29007KT 19/M03 A2993 RMK A01 T01911032  RH  022%=      5-min Rain = 0
KDC1 250714Z 29007KT 19/M03 A2993 RMK A01 T01901031  RH  022%=      5-min Rain = 0
KDC1 250715Z 29007KT 19/M03 A2994 RMK A01 T01891032  RH  022%=      5-min Rain = 0
KDC1 250716Z 29007KT 19/M03 A2994 RMK A01 T01881032  RH  022%=      5-min Rain = 0
KDC1 250717Z 28008KT 19/M03 A2994 RMK A01 T01871033  RH  022%=      5-min Rain = 0
KDC1 250718Z 28007KT 19/M03 A2994 RMK A01 T01861034  RH  022%=      5-min Rain = 0
KDC1 250719Z 28007KT 19/M04 A2994 RMK A01 T01861037  RH  022%=      5-min Rain = 0
KDC1 250720Z 28007KT 19/M04 A2994 RMK A01 T01861039  RH  021%=      5-min Rain = 0
KDC1 250721Z 28008KT 19/M04 A2994 RMK A01 T01861040  RH  021%=      5-min Rain = 0
KDC1 250722Z 28008KT 19/M04 A2994 RMK A01 T01861041  RH  021%=      5-min Rain = 0
KDC1 250723Z 29008KT 19/M04 A2994 RMK A01 T01871041  RH  021%=      5-min Rain = 0
KDC1 250724Z 29009KT 19/M04 A2994 RMK A01 T01881041  RH  021%=      5-min Rain = 0
KDC1 250725Z 29009KT 19/M04 A2994 RMK A01 T01881041  RH  021%=      5-min Rain = 0
KDC1 250726Z 29010KT 19/M04 A2994 RMK A01 T01891042  RH  021%=      5-min Rain = 0
KDC1 250727Z 29010KT 19/M04 A2994 RMK A01 T01911041  RH  020%=      5-min Rain = 0
KDC1 250728Z 29010KT 19/M04 A2994 RMK A01 T01911041  RH  020%=      5-min Rain = 0
KDC1 250729Z 29009KT 19/M04 A2994 RMK A01 T01921040  RH  020%=      5-min Rain = 0
KDC1 250730Z 29009KT 19/M04 A2994 RMK A01 T01921040  RH  020%=      5-min Rain = 0
KDC1 250731Z 29009KT 19/M04 A2994 RMK A01 T01921039  RH  021%=      5-min Rain = 0
KDC1 250732Z 29010KT 19/M04 A2994 RMK A01 T01921040  RH  021%=      5-min Rain = 0
KDC1 250733Z 29010KT 19/M04 A2994 RMK A01 T01921040  RH  020%=      5-min Rain = 0
KDC1 250734Z 29010KT 19/M04 A2994 RMK A01 T01921041  RH  020%=      5-min Rain = 0
KDC1 250735Z 29011KT 19/M04 A2994 RMK A01 T01921042  RH  020%=      5-min Rain = 0
KDC1 250736Z 29010KT 19/M04 A2994 RMK A01 T01921042  RH  020%=      5-min Rain = 0
KDC1 250737Z 29010KT 19/M04 A2994 RMK A01 T01931042  RH  020%=      5-min Rain = 0
KDC1 250738Z 29009KT 19/M04 A2994 RMK A01 T01931041  RH  020%=      5-min Rain = 0
KDC1 250739Z 28008KT 19/M04 A2994 RMK A01 T01931042  RH  020%=      5-min Rain = 0
KDC1 250740Z 28007KT 19/M05 A2994 RMK A01 T01921045  RH  020%=      5-min Rain = 0
KDC1 250741Z 28007KT 19/M05 A2994 RMK A01 T01911047  RH  019%=      5-min Rain = 0
KDC1 250742Z 28007KT 19/M05 A2994 RMK A01 T01911047  RH  019%=      5-min Rain = 0
KDC1 250743Z 27007KT 19/M05 A2994 RMK A01 T01901048  RH  020%=      5-min Rain = 0
KDC1 250744Z 27008KT 19/M05 A2994 RMK A01 T01891049  RH  019%=      5-min Rain = 0
KDC1 250745Z 27007KT 19/M05 A2994 RMK A01 T01901051  RH  019%=      5-min Rain = 0
KDC1 250746Z 27007KT 19/M05 A2994 RMK A01 T01911052  RH  019%=      5-min Rain = 0
KDC1 250747Z 27007KT 19/M05 A2994 RMK A01 T01911054  RH  019%=      5-min Rain = 0
KDC1 250748Z 27006KT 19/M05 A2994 RMK A01 T01931054  RH  018%=      5-min Rain = 0
KDC1 250749Z 29010KT 19/M05 A2994 RMK A01 T01931054  RH  018%=      5-min Rain = 0
KDC1 250750Z 27009KT 19/M06 A2994 RMK A01 T01941056  RH  018%=      5-min Rain = 0
KDC1 250751Z 25006KT 20/M05 A2994 RMK A01 T01971053  RH  018%=      5-min Rain = 0
KDC1 250752Z 26006KT 20/M05 A2994 RMK A01 T02011051  RH  018%=      5-min Rain = 0
KDC1 250753Z 26005KT 21/M05 A2994 RMK A01 T02051048  RH  018%=      5-min Rain = 0
KDC1 250754Z 27005KT 21/M04 A2994 RMK A01 T02061042  RH  019%=      5-min Rain = 0
KDC1 250755Z 24003KT 20/M05 A2994 RMK A01 T02041045  RH  018%=      5-min Rain = 0
KDC1 250756Z 24005KT 20/M05 A2994 RMK A01 T02031047  RH  018%=      5-min Rain = 0
KDC1 250757Z 24004KT 20/M04 A2994 RMK A01 T02031041  RH  019%=      5-min Rain = 0
KDC1 250758Z 24005KT 20/M04 A2994 RMK A01 T02031035  RH  020%=      5-min Rain = 0
KDC1 250759Z 22007KT 20/M03 A2994 RMK A01 T02031032  RH  020%=      5-min Rain = 0
KDC1 250800Z 24007KT 20/M03 A2994 RMK A01 T02011029  RH  021%=      5-min Rain = 0
KDC1 250801Z 24006KT 20/M03 A2994 RMK A01 T02011031  RH  021%=      5-min Rain = 0
KDC1 250802Z 23005KT 20/M03 A2994 RMK A01 T02001031  RH  021%=      5-min Rain = 0
KDC1 250803Z 24006KT 20/M04 A2994 RMK A01 T02001037  RH  020%=      5-min Rain = 0
KDC1 250804Z 23007KT 20/M04 A2994 RMK A01 T02001036  RH  020%=      5-min Rain = 0
KDC1 250805Z 24007KT 20/M04 A2994 RMK A01 T02011035  RH  020%=      5-min Rain = 0
KDC1 250806Z 23007KT 20/M03 A2994 RMK A01 T02021032  RH  020%=      5-min Rain = 0
KDC1 250807Z 25007KT 20/M03 A2994 RMK A01 T02011030  RH  021%=      5-min Rain = 0
KDC1 250808Z 26007KT 20/M03 A2994 RMK A01 T02001028  RH  021%=      5-min Rain = 0
KDC1 250809Z 25006KT 20/M03 A2994 RMK A01 T01981026  RH  022%=      5-min Rain = 0
KDC1 250810Z 24006KT 20/M02 A2994 RMK A01 T01961022  RH  023%=      5-min Rain = 0
KDC1 250811Z 23004KT 19/M02 A2995 RMK A01 T01931021  RH  023%=      5-min Rain = 0
KDC1 250812Z 23004KT 19/M02 A2995 RMK A01 T01921017  RH  024%=      5-min Rain = 0
KDC1 250813Z 23005KT 19/M01 A2995 RMK A01 T01901014  RH  025%=      5-min Rain = 0
KDC1 250814Z 23004KT 19/M01 A2995 RMK A01 T01881014  RH  025%=      5-min Rain = 0
KDC1 250815Z 23004KT 19/M01 A2995 RMK A01 T01871014  RH  026%=      5-min Rain = 0
KDC1 250816Z 24003KT 19/M01 A2995 RMK A01 T01861008  RH  027%=      5-min Rain = 0
KDC1 250817Z 24004KT 18/M00 A2995 RMK A01 T01841002  RH  029%=      5-min Rain = 0
KDC1 250818Z 25005KT 18/M00 A2995 RMK A01 T01821003  RH  029%=      5-min Rain = 0
KDC1 250819Z 26004KT 18/M00 A2995 RMK A01 T01811004  RH  029%=      5-min Rain = 0
KDC1 250820Z 26005KT 18/M00 A2995 RMK A01 T01791001  RH  029%=      5-min Rain = 0
KDC1 250821Z 25004KT 18/M00 A2995 RMK A01 T01781002  RH  029%=      5-min Rain = 0
KDC1 250822Z 26004KT 18/M01 A2995 RMK A01 T01781006  RH  029%=      5-min Rain = 0
KDC1 250823Z 27004KT 18/M00 A2995 RMK A01 T01771004  RH  029%=      5-min Rain = 0
KDC1 250824Z 28003KT 18/00 A2995 RMK A01 T01770001  RH  030%=      5-min Rain = 0
KDC1 250825Z 28003KT 18/M00 A2995 RMK A01 T01761004  RH  030%=      5-min Rain = 0
KDC1 250826Z 32003KT 18/M01 A2995 RMK A01 T01751007  RH  029%=      5-min Rain = 0
KDC1 250827Z 36004KT 17/M01 A2995 RMK A01 T01741009  RH  029%=      5-min Rain = 0
KDC1 250828Z 34003KT 17/M01 A2995 RMK A01 T01731011  RH  029%=      5-min Rain = 0
KDC1 250829Z 31003KT 17/M01 A2995 RMK A01 T01721009  RH  029%=      5-min Rain = 0
KDC1 250830Z 29004KT 17/M02 A2994 RMK A01 T01721018  RH  027%=      5-min Rain = 0
KDC1 250831Z 29004KT 17/M02 A2994 RMK A01 T01741015  RH  027%=      5-min Rain = 0
KDC1 250832Z 27004KT 18/M02 A2994 RMK A01 T01751016  RH  027%=      5-min Rain = 0
KDC1 250833Z 27004KT 18/M02 A2994 RMK A01 T01761015  RH  027%=      5-min Rain = 0
KDC1 250834Z 25005KT 18/M01 A2994 RMK A01 T01781013  RH  027%=      5-min Rain = 0
KDC1 250835Z 26004KT 18/M01 A2994 RMK A01 T01801012  RH  027%=      5-min Rain = 0
KDC1 250836Z 25005KT 18/M01 A2994 RMK A01 T01821011  RH  027%=      5-min Rain = 0
KDC1 250837Z 25005KT 18/M01 A2994 RMK A01 T01841007  RH  027%=      5-min Rain = 0
KDC1 250838Z 26005KT 19/M01 A2994 RMK A01 T01851006  RH  027%=      5-min Rain = 0
KDC1 250839Z 26005KT 19/M01 A2994 RMK A01 T01861005  RH  028%=      5-min Rain = 0
KDC1 250840Z 27005KT 19/M01 A2994 RMK A01 T01851005  RH  028%=      5-min Rain = 0
KDC1 250841Z 27004KT 18/M01 A2994 RMK A01 T01831006  RH  028%=      5-min Rain = 0
KDC1 250842Z 27005KT 18/M01 A2994 RMK A01 T01801006  RH  028%=      5-min Rain = 0
KDC1 250843Z 27005KT 18/M01 A2994 RMK A01 T01771006  RH  029%=      5-min Rain = 0
KDC1 250844Z 27005KT 18/M01 A2994 RMK A01 T01751005  RH  029%=      5-min Rain = 0
KDC1 250845Z 27005KT 18/M00 A2994 RMK A01 T01751002  RH  030%=      5-min Rain = 0
KDC1 250846Z 26006KT 18/00 A2994 RMK A01 T01750003  RH  031%=      5-min Rain = 0
KDC1 250847Z 25005KT 18/01 A2994 RMK A01 T01760006  RH  032%=      5-min Rain = 0
KDC1 250848Z 25005KT 18/01 A2994 RMK A01 T01780010  RH  032%=      5-min Rain = 0
KDC1 250849Z 25004KT 18/02 A2994 RMK A01 T01810015  RH  033%=      5-min Rain = 0
KDC1 250850Z 25004KT 18/02 A2994 RMK A01 T01820022  RH  034%=      5-min Rain = 0
KDC1 250851Z 25005KT 18/03 A2994 RMK A01 T01840029  RH  036%=      5-min Rain = 0
KDC1 250852Z 25005KT 19/04 A2994 RMK A01 T01860036  RH  037%=      5-min Rain = 0
KDC1 250853Z 24004KT 19/04 A2994 RMK A01 T01860039  RH  038%=      5-min Rain = 0
KDC1 250854Z 24004KT 19/03 A2994 RMK A01 T01860026  RH  034%=      5-min Rain = 0
KDC1 250855Z 24004KT 18/02 A2994 RMK A01 T01810021  RH  034%=      5-min Rain = 0
KDC1 250856Z 24004KT 18/02 A2994 RMK A01 T01770023  RH  036%=      5-min Rain = 0
KDC1 250857Z 24003KT 17/02 A2994 RMK A01 T01740022  RH  036%=      5-min Rain = 0
KDC1 250858Z 24003KT 17/03 A2994 RMK A01 T01730025  RH  037%=      5-min Rain = 0
KDC1 250859Z 25004KT 17/03 A2994 RMK A01 T01720033  RH  039%=      5-min Rain = 0
KDC1 250900Z 25004KT 17/04 A2994 RMK A01 T01730037  RH  040%=      5-min Rain = 0
KDC1 250901Z 24003KT 17/03 A2994 RMK A01 T01740033  RH  039%=      5-min Rain = 0
KDC1 250902Z 25003KT 17/04 A2994 RMK A01 T01740038  RH  040%=      5-min Rain = 0
KDC1 250903Z 27002KT 18/04 A2994 RMK A01 T01750035  RH  039%=      5-min Rain = 0
KDC1 250904Z 27003KT 18/04 A2994 RMK A01 T01750036  RH  039%=      5-min Rain = 0
KDC1 250905Z 26003KT 17/04 A2994 RMK A01 T01740036  RH  040%=      5-min Rain = 0
KDC1 250906Z 24003KT 17/04 A2994 RMK A01 T01740042  RH  041%=      5-min Rain = 0
KDC1 250907Z 25003KT 18/05 A2994 RMK A01 T01750049  RH  043%=      5-min Rain = 0
KDC1 250908Z 25003KT 18/05 A2994 RMK A01 T01760049  RH  043%=      5-min Rain = 0
KDC1 250909Z 26002KT 18/05 A2994 RMK A01 T01770050  RH  043%=      5-min Rain = 0
KDC1 250910Z 26002KT 18/06 A2994 RMK A01 T01790062  RH  046%=      5-min Rain = 0
KDC1 250911Z 26003KT 18/07 A2994 RMK A01 T01810069  RH  048%=      5-min Rain = 0
KDC1 250912Z 26002KT 18/07 A2994 RMK A01 T01840069  RH  047%=      5-min Rain = 0
KDC1 250913Z 26003KT 19/07 A2994 RMK A01 T01850066  RH  046%=      5-min Rain = 0
KDC1 250914Z 25003KT 19/07 A2994 RMK A01 T01850066  RH  046%=      5-min Rain = 0
KDC1 250915Z 23002KT 19/07 A2994 RMK A01 T01850072  RH  047%=      5-min Rain = 0
KDC1 250916Z 21003KT 19/08 A2994 RMK A01 T01850079  RH  050%=      5-min Rain = 0
KDC1 250917Z 21002KT 19/09 A2994 RMK A01 T01880093  RH  054%=      5-min Rain = 0
KDC1 250918Z 19002KT 19/09 A2994 RMK A01 T01920089  RH  051%=      5-min Rain = 0
KDC1 250919Z 19004KT 19/09 A2995 RMK A01 T01930093  RH  052%=      5-min Rain = 0
KDC1 250920Z 18003KT 19/10 A2995 RMK A01 T01940098  RH  054%=      5-min Rain = 0
KDC1 250921Z 18004KT 20/10 A2995 RMK A01 T01960098  RH  053%=      5-min Rain = 0
KDC1 250922Z 19004KT 20/10 A2995 RMK A01 T01970103  RH  054%=      5-min Rain = 0
KDC1 250923Z 17003KT 20/10 A2995 RMK A01 T01980100  RH  053%=      5-min Rain = 0
KDC1 250924Z 19002KT 20/10 A2995 RMK A01 T01990100  RH  053%=      5-min Rain = 0
KDC1 250925Z 22003KT 20/10 A2995 RMK A01 T01990097  RH  052%=      5-min Rain = 0
KDC1 250926Z 21003KT 20/09 A2995 RMK A01 T01990089  RH  049%=      5-min Rain = 0
KDC1 250927Z 20003KT 20/10 A2995 RMK A01 T01980100  RH  053%=      5-min Rain = 0
KDC1 250928Z 21003KT 20/10 A2995 RMK A01 T01960096  RH  053%=      5-min Rain = 0
KDC1 250929Z 20002KT 20/09 A2995 RMK A01 T01950093  RH  052%=      5-min Rain = 0
KDC1 250930Z 20002KT 20/09 A2995 RMK A01 T01950090  RH  051%=      5-min Rain = 0
KDC1 250931Z 21001KT 19/08 A2995 RMK A01 T01940078  RH  047%=      5-min Rain = 0
KDC1 250932Z 21003KT 19/08 A2995 RMK A01 T01940076  RH  046%=      5-min Rain = 0
KDC1 250933Z 18002KT 19/07 A2995 RMK A01 T01940073  RH  045%=      5-min Rain = 0
KDC1 250934Z 17002KT 20/06 A2995 RMK A01 T01950060  RH  041%=      5-min Rain = 0
KDC1 250935Z 17003KT 20/06 A2995 RMK A01 T01950055  RH  040%=      5-min Rain = 0
KDC1 250936Z 17002KT 20/06 A2995 RMK A01 T01950058  RH  041%=      5-min Rain = 0
KDC1 250937Z 19003KT 19/06 A2995 RMK A01 T01930059  RH  042%=      5-min Rain = 0
KDC1 250938Z 19004KT 19/06 A2995 RMK A01 T01920061  RH  043%=      5-min Rain = 0
KDC1 250939Z 19003KT 19/04 A2995 RMK A01 T01910044  RH  038%=      5-min Rain = 0
KDC1 250940Z 19004KT 19/04 A2995 RMK A01 T01910042  RH  037%=      5-min Rain = 0
KDC1 250941Z 19004KT 19/04 A2995 RMK A01 T01910035  RH  036%=      5-min Rain = 0
KDC1 250942Z 18004KT 19/03 A2995 RMK A01 T01910031  RH  035%=      5-min Rain = 0
KDC1 250943Z 18002KT 19/02 A2996 RMK A01 T01910024  RH  033%=      5-min Rain = 0
KDC1 250944Z 18002KT 19/02 A2996 RMK A01 T01920022  RH  032%=      5-min Rain = 0
KDC1 250945Z 18003KT 19/03 A2996 RMK A01 T01920025  RH  033%=      5-min Rain = 0
KDC1 250946Z 18003KT 19/02 A2996 RMK A01 T01920018  RH  031%=      5-min Rain = 0
KDC1 250947Z 18003KT 19/02 A2996 RMK A01 T01920018  RH  031%=      5-min Rain = 0
KDC1 250948Z 18003KT 19/02 A2996 RMK A01 T01910019  RH  032%=      5-min Rain = 0
KDC1 250949Z 19003KT 19/02 A2996 RMK A01 T01910015  RH  031%=      5-min Rain = 0
KDC1 250950Z 19003KT 19/01 A2996 RMK A01 T01910014  RH  031%=      5-min Rain = 0
KDC1 250951Z 20003KT 19/01 A2996 RMK A01 T01900014  RH  031%=      5-min Rain = 0
KDC1 250952Z 20002KT 19/01 A2996 RMK A01 T01900012  RH  030%=      5-min Rain = 0
KDC1 250953Z 22002KT 19/01 A2996 RMK A01 T01900012  RH  030%=      5-min Rain = 0
KDC1 250954Z 22002KT 19/01 A2996 RMK A01 T01900012  RH  030%=      5-min Rain = 0
KDC1 250955Z 24003KT 19/02 A2996 RMK A01 T01890017  RH  032%=      5-min Rain = 0
KDC1 250956Z 23003KT 19/05 A2996 RMK A01 T01880048  RH  040%=      5-min Rain = 0
KDC1 250957Z 23003KT 18/05 A2996 RMK A01 T01840052  RH  042%=      5-min Rain = 0
KDC1 250958Z 23003KT 18/05 A2996 RMK A01 T01810050  RH  042%=      5-min Rain = 0
KDC1 250959Z 23003KT 18/05 A2996 RMK A01 T01780046  RH  042%=      5-min Rain = 0
KDC1 251000Z 23004KT 18/04 A2996 RMK A01 T01770040  RH  040%=      5-min Rain = 0
KDC1 251001Z 23005KT 18/04 A2996 RMK A01 T01750036  RH  039%=      5-min Rain = 0
KDC1 251002Z 23004KT 17/03 A2996 RMK A01 T01740030  RH  038%=      5-min Rain = 0
KDC1 251003Z 24005KT 17/03 A2996 RMK A01 T01740028  RH  038%=      5-min Rain = 0
KDC1 251004Z 24004KT 17/03 A2996 RMK A01 T01740029  RH  038%=      5-min Rain = 0
KDC1 251005Z 25005KT 17/03 A2996 RMK A01 T01730033  RH  039%=      5-min Rain = 0
KDC1 251006Z 25005KT 17/03 A2996 RMK A01 T01730028  RH  038%=      5-min Rain = 0
KDC1 251007Z 26005KT 17/02 A2996 RMK A01 T01730022  RH  036%=      5-min Rain = 0
KDC1 251008Z 26005KT 18/02 A2996 RMK A01 T01750024  RH  036%=      5-min Rain = 0
KDC1 251009Z 26005KT 18/02 A2996 RMK A01 T01750024  RH  036%=      5-min Rain = 0
KDC1 251010Z 26005KT 18/03 A2996 RMK A01 T01760031  RH  038%=      5-min Rain = 0
KDC1 251011Z 25005KT 18/03 A2996 RMK A01 T01750033  RH  039%=      5-min Rain = 0
KDC1 251012Z 25006KT 18/03 A2996 RMK A01 T01750030  RH  038%=      5-min Rain = 0
KDC1 251013Z 25005KT 18/03 A2996 RMK A01 T01760031  RH  038%=      5-min Rain = 0
KDC1 251014Z 26005KT 18/03 A2996 RMK A01 T01750033  RH  039%=      5-min Rain = 0
KDC1 251015Z 25005KT 18/03 A2996 RMK A01 T01760034  RH  039%=      5-min Rain = 0
KDC1 251016Z 25006KT 18/03 A2996 RMK A01 T01750033  RH  039%=      5-min Rain = 0
KDC1 251017Z 25005KT 18/04 A2996 RMK A01 T01760035  RH  039%=      5-min Rain = 0
KDC1 251018Z 25005KT 18/04 A2996 RMK A01 T01760036  RH  039%=      5-min Rain = 0
KDC1 251019Z 26005KT 18/04 A2996 RMK A01 T01760037  RH  040%=      5-min Rain = 0
KDC1 251020Z 26005KT 18/04 A2996 RMK A01 T01760039  RH  040%=      5-min Rain = 0
KDC1 251021Z 26006KT 18/04 A2996 RMK A01 T01760040  RH  040%=      5-min Rain = 0
KDC1 251022Z 26006KT 18/04 A2996 RMK A01 T01760041  RH  041%=      5-min Rain = 0
KDC1 251023Z 25005KT 18/04 A2996 RMK A01 T01750040  RH  041%=      5-min Rain = 0
KDC1 251024Z 25004KT 18/04 A2996 RMK A01 T01760039  RH  040%=      5-min Rain = 0
KDC1 251025Z 26004KT 18/04 A2996 RMK A01 T01770039  RH  040%=      5-min Rain = 0
KDC1 251026Z 25004KT 18/04 A2996 RMK A01 T01770039  RH  040%=      5-min Rain = 0
KDC1 251027Z 25005KT 18/04 A2996 RMK A01 T01780040  RH  040%=      5-min Rain = 0
KDC1 251028Z 25006KT 18/04 A2997 RMK A01 T01780042  RH  041%=      5-min Rain = 0
KDC1 251029Z 25007KT 18/04 A2997 RMK A01 T01780043  RH  041%=      5-min Rain = 0
KDC1 251030Z 25006KT 18/04 A2997 RMK A01 T01790042  RH  040%=      5-min Rain = 0
KDC1 251031Z 26006KT 18/04 A2997 RMK A01 T01800042  RH  040%=      5-min Rain = 0
KDC1 251032Z 26006KT 18/04 A2997 RMK A01 T01820044  RH  040%=      5-min Rain = 0
KDC1 251033Z 25006KT 18/05 A2997 RMK A01 T01820049  RH  041%=      5-min Rain = 0
KDC1 251034Z 26006KT 18/06 A2997 RMK A01 T01820055  RH  043%=      5-min Rain = 0
KDC1 251035Z 26005KT 18/06 A2997 RMK A01 T01830061  RH  045%=      5-min Rain = 0
KDC1 251036Z 26006KT 18/06 A2997 RMK A01 T01820064  RH  046%=      5-min Rain = 0
KDC1 251037Z 26006KT 18/07 A2997 RMK A01 T01810067  RH  047%=      5-min Rain = 0
KDC1 251038Z 25005KT 18/07 A2997 RMK A01 T01790070  RH  049%=      5-min Rain = 0
KDC1 251039Z 25005KT 18/07 A2997 RMK A01 T01790071  RH  049%=      5-min Rain = 0
KDC1 251040Z 25005KT 18/07 A2997 RMK A01 T01780072  RH  050%=      5-min Rain = 0
KDC1 251041Z 25006KT 18/07 A2997 RMK A01 T01770073  RH  050%=      5-min Rain = 0
KDC1 251042Z 25005KT 18/08 A2997 RMK A01 T01780075  RH  051%=      5-min Rain = 0
KDC1 251043Z 25006KT 18/08 A2997 RMK A01 T01780075  RH  051%=      5-min Rain = 0
KDC1 251044Z 25006KT 18/08 A2997 RMK A01 T01790077  RH  051%=      5-min Rain = 0
KDC1 251045Z 24006KT 18/08 A2997 RMK A01 T01810080  RH  052%=      5-min Rain = 0
KDC1 251046Z 24006KT 18/08 A2997 RMK A01 T01810083  RH  053%=      5-min Rain = 0
KDC1 251047Z 24006KT 18/09 A2997 RMK A01 T01820086  RH  053%=      5-min Rain = 0
KDC1 251048Z 24006KT 18/09 A2997 RMK A01 T01810087  RH  054%=      5-min Rain = 0
KDC1 251049Z 24006KT 18/09 A2997 RMK A01 T01820088  RH  054%=      5-min Rain = 0
KDC1 251050Z 23006KT 18/09 A2997 RMK A01 T01810089  RH  055%=      5-min Rain = 0
KDC1 251051Z 23005KT 18/09 A2997 RMK A01 T01800089  RH  055%=      5-min Rain = 0
KDC1 251052Z 22006KT 18/09 A2997 RMK A01 T01800088  RH  055%=      5-min Rain = 0
KDC1 251053Z 23007KT 18/09 A2997 RMK A01 T01800086  RH  054%=      5-min Rain = 0
KDC1 251054Z 23006KT 18/09 A2998 RMK A01 T01810085  RH  053%=      5-min Rain = 0
KDC1 251055Z 22006KT 18/09 A2998 RMK A01 T01820085  RH  053%=      5-min Rain = 0
KDC1 251056Z 22006KT 18/09 A2998 RMK A01 T01830085  RH  053%=      5-min Rain = 0
KDC1 251057Z 23006KT 18/08 A2998 RMK A01 T01830083  RH  052%=      5-min Rain = 0
KDC1 251058Z 22006KT 18/08 A2998 RMK A01 T01840082  RH  051%=      5-min Rain = 0
KDC1 251059Z 22006KT 18/08 A2998 RMK A01 T01840079  RH  050%=      5-min Rain = 0
KDC1 251100Z 22006KT 19/08 A2998 RMK A01 T01860079  RH  050%=      5-min Rain = 0
KDC1 251101Z 22005KT 19/08 A2998 RMK A01 T01870080  RH  050%=      5-min Rain = 0
KDC1 251102Z 22006KT 19/08 A2998 RMK A01 T01870079  RH  049%=      5-min Rain = 0
KDC1 251103Z 22005KT 19/08 A2998 RMK A01 T01870079  RH  049%=      5-min Rain = 0
KDC1 251104Z 22005KT 19/08 A2998 RMK A01 T01870078  RH  049%=      5-min Rain = 0
KDC1 251105Z 22005KT 19/08 A2998 RMK A01 T01880077  RH  048%=      5-min Rain = 0
KDC1 251106Z 22005KT 19/08 A2998 RMK A01 T01900077  RH  048%=      5-min Rain = 0
KDC1 251107Z 22005KT 19/08 A2998 RMK A01 T01900079  RH  048%=      5-min Rain = 0
KDC1 251108Z 22006KT 19/08 A2998 RMK A01 T01910081  RH  049%=      5-min Rain = 0
KDC1 251109Z 22006KT 19/08 A2998 RMK A01 T01900083  RH  050%=      5-min Rain = 0
KDC1 251110Z 22005KT 19/08 A2998 RMK A01 T01890084  RH  050%=      5-min Rain = 0
KDC1 251111Z 22005KT 19/09 A2998 RMK A01 T01880086  RH  051%=      5-min Rain = 0
KDC1 251112Z 22005KT 19/09 A2998 RMK A01 T01870088  RH  052%=      5-min Rain = 0
KDC1 251113Z 22004KT 19/09 A2998 RMK A01 T01860089  RH  053%=      5-min Rain = 0
KDC1 251114Z 22003KT 18/09 A2998 RMK A01 T01840089  RH  054%=      5-min Rain = 0
KDC1 251115Z 22005KT 18/09 A2998 RMK A01 T01830089  RH  054%=      5-min Rain = 0
KDC1 251116Z 19003KT 18/09 A2999 RMK A01 T01830089  RH  054%=      5-min Rain = 0
KDC1 251117Z 07004KT 18/07 A2999 RMK A01 T01800074  RH  050%=      5-min Rain = 0
KDC1 251118Z 10003KT 18/08 A2999 RMK A01 T01780078  RH  052%=      5-min Rain = 0
KDC1 251119Z 10002KT 18/08 A2999 RMK A01 T01780076  RH  051%=      5-min Rain = 0
KDC1 251120Z 07004KT 18/07 A2999 RMK A01 T01790067  RH  048%=      5-min Rain = 0
KDC1 251121Z 06004KT 18/06 A2999 RMK A01 T01750061  RH  047%=      5-min Rain = 0
KDC1 251122Z 07005KT 17/06 A2999 RMK A01 T01670060  RH  049%=      5-min Rain = 0
KDC1 251123Z 06005KT 16/06 A2999 RMK A01 T01620058  RH  050%=      5-min Rain = 0
KDC1 251124Z 06005KT 16/06 A2999 RMK A01 T01590058  RH  051%=      5-min Rain = 0
KDC1 251125Z 06005KT 16/06 A2999 RMK A01 T01570059  RH  052%=      5-min Rain = 0
KDC1 251126Z 06005KT 15/06 A2999 RMK A01 T01540062  RH  054%=      5-min Rain = 0
KDC1 251127Z 05004KT 15/06 A2999 RMK A01 T01520064  RH  055%=      5-min Rain = 0
KDC1 251128Z 03003KT 15/07 A2999 RMK A01 T01510065  RH  056%=      5-min Rain = 0
KDC1 251129Z 06003KT 15/07 A2999 RMK A01 T01510065  RH  057%=      5-min Rain = 0
KDC1 251130Z 04003KT 15/07 A2999 RMK A01 T01500066  RH  057%=      5-min Rain = 0
KDC1 251131Z 05002KT 15/07 A2999 RMK A01 T01500065  RH  057%=      5-min Rain = 0
KDC1 251132Z 04002KT 15/07 A2999 RMK A01 T01500065  RH  057%=      5-min Rain = 0
KDC1 251133Z 04002KT 15/07 A2999 RMK A01 T01500065  RH  057%=      5-min Rain = 0
KDC1 251134Z 04002KT 15/07 A2999 RMK A01 T01500065  RH  057%=      5-min Rain = 0
KDC1 251135Z 05003KT 15/07 A2999 RMK A01 T01500065  RH  057%=      5-min Rain = 0
KDC1 251136Z 06003KT 15/07 A2999 RMK A01 T01500065  RH  057%=      5-min Rain = 0
KDC1 251137Z 07003KT 15/07 A2999 RMK A01 T01500066  RH  057%=      5-min Rain = 0
KDC1 251138Z 03002KT 15/07 A2999 RMK A01 T01500065  RH  057%=      5-min Rain = 0
KDC1 251139Z 04001KT 15/06 A2999 RMK A01 T01510064  RH  056%=      5-min Rain = 0
KDC1 251140Z 04001KT 15/06 A30 RMK A01 T01510064  RH  056%=      5-min Rain = 0
KDC1 251141Z 00002KT 15/06 A30 RMK A01 T01510064  RH  056%=      5-min Rain = 0
KDC1 251142Z 00000KT 15/06 A30 RMK A01 T01510064  RH  056%=      5-min Rain = 0
KDC1 251143Z 03001KT 15/06 A30 RMK A01 T01510064  RH  056%=      5-min Rain = 0
KDC1 251144Z 03002KT 15/06 A30 RMK A01 T01510064  RH  056%=      5-min Rain = 0
KDC1 251145Z 03002KT 15/06 A30 RMK A01 T01510064  RH  056%=      5-min Rain = 0
KDC1 251146Z 03003KT 15/06 A30 RMK A01 T01510063  RH  056%=      5-min Rain = 0
KDC1 251147Z 04002KT 15/06 A30 RMK A01 T01510063  RH  056%=      5-min Rain = 0
KDC1 251148Z 04003KT 15/06 A30 RMK A01 T01510064  RH  056%=      5-min Rain = 0
KDC1 251149Z 04003KT 15/06 A30 RMK A01 T01510063  RH  056%=      5-min Rain = 0
KDC1 251150Z 04003KT 15/06 A30 RMK A01 T01500063  RH  056%=      5-min Rain = 0
KDC1 251151Z 03002KT 15/07 A30 RMK A01 T01500065  RH  057%=      5-min Rain = 0
KDC1 251152Z 03003KT 15/06 A30 RMK A01 T01490063  RH  056%=      5-min Rain = 0
KDC1 251153Z 03003KT 15/06 A30 RMK A01 T01480062  RH  056%=      5-min Rain = 0
KDC1 251154Z 03003KT 15/06 A30 RMK A01 T01480061  RH  056%=      5-min Rain = 0
KDC1 251155Z 02004KT 15/06 A30 RMK A01 T01470060  RH  056%=      5-min Rain = 0
KDC1 251156Z 03004KT 15/06 A30 RMK A01 T01470060  RH  056%=      5-min Rain = 0
KDC1 251157Z 03004KT 15/06 A30 RMK A01 T01470059  RH  056%=      5-min Rain = 0
KDC1 251158Z 02004KT 15/06 A30 RMK A01 T01460058  RH  055%=      5-min Rain = 0
KDC1 251159Z 01004KT 15/06 A30 RMK A01 T01460057  RH  055%=      5-min Rain = 0
KDC1 251200Z 01004KT 15/06 A30 RMK A01 T01460056  RH  055%=      5-min Rain = 0
KDC1 251201Z 01004KT 15/05 A30 RMK A01 T01450052  RH  053%=      5-min Rain = 0
KDC1 251202Z 00003KT 15/05 A30 RMK A01 T01450050  RH  053%=      5-min Rain = 0
KDC1 251203Z 00003KT 15/05 A30 RMK A01 T01450051  RH  053%=      5-min Rain = 0
KDC1 251204Z 00004KT 15/05 A30 RMK A01 T01450049  RH  053%=      5-min Rain = 0
KDC1 251205Z 36003KT 15/05 A30 RMK A01 T01460049  RH  052%=      5-min Rain = 0
KDC1 251206Z 34004KT 15/05 A30 RMK A01 T01460049  RH  052%=      5-min Rain = 0
KDC1 251207Z 34003KT 15/05 A3001 RMK A01 T01470049  RH  052%=      5-min Rain = 0
KDC1 251208Z 34003KT 15/05 A3001 RMK A01 T01480049  RH  052%=      5-min Rain = 0
KDC1 251209Z 34003KT 15/05 A3001 RMK A01 T01490049  RH  051%=      5-min Rain = 0
KDC1 251210Z 34003KT 15/05 A3001 RMK A01 T01500052  RH  052%=      5-min Rain = 0
KDC1 251211Z 34003KT 15/06 A3001 RMK A01 T01510055  RH  053%=      5-min Rain = 0
KDC1 251212Z 33003KT 15/06 A3001 RMK A01 T01510061  RH  055%=      5-min Rain = 0
KDC1 251213Z 33003KT 15/06 A3001 RMK A01 T01510063  RH  056%=      5-min Rain = 0
KDC1 251214Z 33003KT 15/07 A3001 RMK A01 T01510065  RH  056%=      5-min Rain = 0
KDC1 251215Z 33003KT 15/07 A3001 RMK A01 T01500071  RH  059%=      5-min Rain = 0
KDC1 251216Z 32003KT 15/07 A3001 RMK A01 T01510074  RH  060%=      5-min Rain = 0
KDC1 251217Z 32002KT 15/07 A3001 RMK A01 T01520074  RH  060%=      5-min Rain = 0
KDC1 251218Z 33002KT 15/08 A3001 RMK A01 T01520075  RH  060%=      5-min Rain = 0
KDC1 251219Z 34003KT 15/07 A3001 RMK A01 T01530074  RH  059%=      5-min Rain = 0
KDC1 251220Z 34003KT 15/07 A3001 RMK A01 T01530072  RH  059%=      5-min Rain = 0
KDC1 251221Z 34002KT 15/07 A3001 RMK A01 T01530072  RH  058%=      5-min Rain = 0
KDC1 251222Z 33002KT 15/07 A3001 RMK A01 T01520072  RH  059%=      5-min Rain = 0
KDC1 251223Z 34002KT 15/08 A3001 RMK A01 T01520075  RH  060%=      5-min Rain = 0
KDC1 251224Z 34002KT 15/08 A3001 RMK A01 T01530077  RH  061%=      5-min Rain = 0
KDC1 251225Z 34003KT 15/08 A3001 RMK A01 T01530076  RH  060%=      5-min Rain = 0
KDC1 251226Z 33003KT 15/08 A3001 RMK A01 T01530076  RH  060%=      5-min Rain = 0
KDC1 251227Z 33003KT 15/08 A3001 RMK A01 T01530076  RH  060%=      5-min Rain = 0
KDC1 251228Z 32003KT 15/08 A3001 RMK A01 T01530076  RH  060%=      5-min Rain = 0
KDC1 251229Z 32003KT 15/08 A3001 RMK A01 T01530076  RH  060%=      5-min Rain = 0
KDC1 251230Z 32004KT 15/08 A3001 RMK A01 T01530078  RH  061%=      5-min Rain = 0
KDC1 251231Z 31004KT 15/08 A3001 RMK A01 T01530079  RH  061%=      5-min Rain = 0
KDC1 251232Z 30004KT 15/08 A3001 RMK A01 T01530080  RH  061%=      5-min Rain = 0
KDC1 251233Z 30003KT 15/08 A3001 RMK A01 T01540083  RH  063%=      5-min Rain = 0
KDC1 251234Z 31004KT 16/09 A3001 RMK A01 T01560088  RH  064%=      5-min Rain = 0
KDC1 251235Z 31003KT 16/09 A3001 RMK A01 T01570090  RH  064%=      5-min Rain = 0
KDC1 251236Z 31003KT 16/09 A3001 RMK A01 T01570091  RH  065%=      5-min Rain = 0
KDC1 251237Z 31003KT 16/09 A3001 RMK A01 T01590092  RH  064%=      5-min Rain = 0
KDC1 251238Z 31003KT 16/09 A3001 RMK A01 T01600092  RH  064%=      5-min Rain = 0
KDC1 251239Z 31003KT 16/09 A3001 RMK A01 T01610092  RH  064%=      5-min Rain = 0
KDC1 251240Z 31002KT 16/09 A3001 RMK A01 T01620092  RH  063%=      5-min Rain = 0
KDC1 251241Z 30003KT 16/09 A3001 RMK A01 T01630093  RH  063%=      5-min Rain = 0
KDC1 251242Z 30002KT 17/09 A3001 RMK A01 T01650093  RH  063%=      5-min Rain = 0
KDC1 251243Z 30003KT 17/10 A3001 RMK A01 T01650095  RH  063%=      5-min Rain = 0
KDC1 251244Z 30003KT 17/10 A3001 RMK A01 T01660095  RH  063%=      5-min Rain = 0
KDC1 251245Z 30003KT 17/10 A3001 RMK A01 T01670095  RH  062%=      5-min Rain = 0
KDC1 251246Z 30003KT 17/10 A3001 RMK A01 T01680095  RH  062%=      5-min Rain = 0
KDC1 251247Z 29003KT 17/10 A3001 RMK A01 T01680095  RH  062%=      5-min Rain = 0
KDC1 251248Z 29003KT 17/09 A3001 RMK A01 T01680094  RH  062%=      5-min Rain = 0
KDC1 251249Z 29003KT 17/09 A3001 RMK A01 T01680094  RH  062%=      5-min Rain = 0
KDC1 251250Z 29003KT 17/09 A3002 RMK A01 T01680093  RH  061%=      5-min Rain = 0
KDC1 251251Z 29003KT 17/09 A3002 RMK A01 T01690093  RH  061%=      5-min Rain = 0
KDC1 251252Z 29003KT 17/09 A3002 RMK A01 T01690093  RH  061%=      5-min Rain = 0
KDC1 251253Z 30003KT 17/09 A3002 RMK A01 T01700093  RH  061%=      5-min Rain = 0
KDC1 251254Z 30003KT 17/09 A3002 RMK A01 T01710094  RH  060%=      5-min Rain = 0
KDC1 251255Z 30003KT 17/09 A3002 RMK A01 T01720094  RH  060%=      5-min Rain = 0
KDC1 251256Z 30003KT 17/10 A3002 RMK A01 T01740096  RH  060%=      5-min Rain = 0
KDC1 251257Z 30003KT 18/10 A3002 RMK A01 T01750098  RH  060%=      5-min Rain = 0
KDC1 251258Z 29003KT 18/10 A3002 RMK A01 T01770101  RH  061%=      5-min Rain = 0
KDC1 251259Z 28003KT 18/10 A3002 RMK A01 T01780102  RH  061%=      5-min Rain = 0
KDC1 251300Z 28003KT 18/11 A3002 RMK A01 T01800106  RH  062%=      5-min Rain = 0
KDC1 251301Z 28003KT 18/11 A3002 RMK A01 T01810110  RH  063%=      5-min Rain = 0
KDC1 251302Z 28003KT 18/11 A3002 RMK A01 T01820112  RH  063%=      5-min Rain = 0
KDC1 251303Z 28003KT 18/12 A3002 RMK A01 T01830115  RH  064%=      5-min Rain = 0
KDC1 251304Z 28003KT 18/12 A3002 RMK A01 T01840118  RH  065%=      5-min Rain = 0
KDC1 251305Z 29004KT 19/12 A3002 RMK A01 T01850120  RH  066%=      5-min Rain = 0
KDC1 251306Z 29003KT 19/12 A3002 RMK A01 T01860122  RH  066%=      5-min Rain = 0
KDC1 251307Z 29003KT 19/12 A3002 RMK A01 T01870122  RH  066%=      5-min Rain = 0
KDC1 251308Z 30003KT 19/12 A3002 RMK A01 T01880124  RH  066%=      5-min Rain = 0
KDC1 251309Z 30003KT 19/12 A3003 RMK A01 T01880124  RH  066%=      5-min Rain = 0
KDC1 251310Z 31002KT 19/12 A3003 RMK A01 T01890124  RH  066%=      5-min Rain = 0
KDC1 251311Z 30003KT 19/12 A3003 RMK A01 T01900124  RH  065%=      5-min Rain = 0
KDC1 251312Z 29003KT 19/12 A3003 RMK A01 T01910123  RH  065%=      5-min Rain = 0
KDC1 251313Z 29003KT 19/12 A3003 RMK A01 T01920123  RH  064%=      5-min Rain = 0
KDC1 251314Z 29003KT 19/12 A3003 RMK A01 T01920121  RH  063%=      5-min Rain = 0
KDC1 251315Z 28003KT 19/12 A3003 RMK A01 T01930120  RH  063%=      5-min Rain = 0
KDC1 251316Z 27002KT 19/12 A3003 RMK A01 T01940120  RH  062%=      5-min Rain = 0
KDC1 251317Z 27003KT 20/12 A3003 RMK A01 T01950119  RH  061%=      5-min Rain = 0
KDC1 251318Z 27003KT 20/12 A3003 RMK A01 T01960117  RH  060%=      5-min Rain = 0
KDC1 251319Z 25002KT 20/12 A3003 RMK A01 T01970116  RH  059%=      5-min Rain = 0
KDC1 251320Z 28002KT 20/12 A3003 RMK A01 T01980116  RH  059%=      5-min Rain = 0
KDC1 251321Z 27002KT 20/12 A3003 RMK A01 T01990115  RH  058%=      5-min Rain = 0
KDC1 251322Z 25002KT 20/11 A3003 RMK A01 T02010114  RH  058%=      5-min Rain = 0
KDC1 251323Z 23001KT 20/11 A3003 RMK A01 T02010114  RH  057%=      5-min Rain = 0
KDC1 251324Z 24002KT 20/12 A3003 RMK A01 T02020116  RH  057%=      5-min Rain = 0
KDC1 251325Z 24002KT 20/11 A3003 RMK A01 T02030113  RH  056%=      5-min Rain = 0
KDC1 251326Z 25003KT 20/11 A3003 RMK A01 T02040113  RH  056%=      5-min Rain = 0
KDC1 251327Z 24003KT 20/11 A3003 RMK A01 T02040111  RH  055%=      5-min Rain = 0
KDC1 251328Z 25003KT 20/11 A3003 RMK A01 T02040112  RH  055%=      5-min Rain = 0
KDC1 251329Z 26003KT 21/12 A3003 RMK A01 T02050115  RH  056%=      5-min Rain = 0
KDC1 251330Z 26003KT 21/12 A3003 RMK A01 T02050115  RH  056%=      5-min Rain = 0
KDC1 251331Z 27003KT 21/12 A3003 RMK A01 T02060115  RH  056%=      5-min Rain = 0
KDC1 251332Z 27003KT 21/11 A3003 RMK A01 T02070110  RH  054%=      5-min Rain = 0
KDC1 251333Z 26003KT 21/11 A3003 RMK A01 T02080110  RH  054%=      5-min Rain = 0
KDC1 251334Z 28003KT 21/11 A3003 RMK A01 T02080112  RH  054%=      5-min Rain = 0
KDC1 251335Z 28003KT 21/11 A3003 RMK A01 T02090106  RH  052%=      5-min Rain = 0
KDC1 251336Z 27003KT 21/10 A3003 RMK A01 T02100101  RH  050%=      5-min Rain = 0
KDC1 251337Z 27003KT 21/09 A3003 RMK A01 T02110094  RH  047%=      5-min Rain = 0
KDC1 251338Z 28002KT 21/09 A3003 RMK A01 T02120091  RH  046%=      5-min Rain = 0
KDC1 251339Z 24002KT 21/09 A3003 RMK A01 T02130093  RH  046%=      5-min Rain = 0
KDC1 251340Z 28001KT 21/10 A3003 RMK A01 T02140095  RH  046%=      5-min Rain = 0
KDC1 251341Z 31001KT 22/09 A3003 RMK A01 T02150093  RH  046%=      5-min Rain = 0
KDC1 251342Z 00000KT 22/09 A3003 RMK A01 T02160093  RH  045%=      5-min Rain = 0
KDC1 251343Z 00000KT 22/09 A3003 RMK A01 T02170094  RH  045%=      5-min Rain = 0
KDC1 251344Z 00000KT 22/10 A3003 RMK A01 T02190095  RH  045%=      5-min Rain = 0
KDC1 251345Z 13000KT 22/10 A3003 RMK A01 T02220097  RH  045%=      5-min Rain = 0
KDC1 251346Z 15002KT 23/10 A3004 RMK A01 T02250103  RH  046%=      5-min Rain = 0
KDC1 251347Z 14001KT 23/11 A3004 RMK A01 T02260108  RH  047%=      5-min Rain = 0
KDC1 251348Z 14002KT 23/11 A3004 RMK A01 T02260108  RH  047%=      5-min Rain = 0
KDC1 251349Z 13001KT 23/11 A3004 RMK A01 T02260110  RH  048%=      5-min Rain = 0
KDC1 251350Z 15002KT 23/11 A3004 RMK A01 T02250110  RH  048%=      5-min Rain = 0
KDC1 251351Z 15002KT 23/12 A3004 RMK A01 T02250115  RH  050%=      5-min Rain = 0
KDC1 251352Z 14001KT 23/12 A3004 RMK A01 T02250120  RH  051%=      5-min Rain = 0
KDC1 251353Z 12002KT 23/12 A3004 RMK A01 T02260116  RH  050%=      5-min Rain = 0
KDC1 251354Z 13001KT 23/12 A3004 RMK A01 T02260115  RH  049%=      5-min Rain = 0
KDC1 251355Z 14000KT 23/12 A3004 RMK A01 T02280115  RH  049%=      5-min Rain = 0
KDC1 251356Z 08001KT 23/11 A3004 RMK A01 T02290114  RH  048%=      5-min Rain = 0
KDC1 251357Z 08002KT 23/11 A3004 RMK A01 T02290112  RH  048%=      5-min Rain = 0
KDC1 251358Z 06002KT 23/11 A3004 RMK A01 T02290110  RH  047%=      5-min Rain = 0
KDC1 251359Z 09002KT 23/11 A3004 RMK A01 T02280109  RH  047%=      5-min Rain = 0
KDC1 251400Z 08002KT 23/11 A3004 RMK A01 T02280109  RH  047%=      5-min Rain = 0
KDC1 251401Z 09002KT 23/11 A3004 RMK A01 T02280109  RH  047%=      5-min Rain = 0
KDC1 251402Z 08001KT 23/11 A3004 RMK A01 T02270110  RH  047%=      5-min Rain = 0
KDC1 251403Z 08001KT 23/11 A3004 RMK A01 T02270110  RH  048%=      5-min Rain = 0
KDC1 251404Z 08001KT 23/11 A3004 RMK A01 T02280109  RH  047%=      5-min Rain = 0
KDC1 251405Z 10002KT 23/11 A3004 RMK A01 T02300112  RH  047%=      5-min Rain = 0
KDC1 251406Z 13001KT 23/11 A3004 RMK A01 T02310114  RH  048%=      5-min Rain = 0
KDC1 251407Z 13000KT 23/12 A3004 RMK A01 T02310115  RH  048%=      5-min Rain = 0
KDC1 251408Z 11001KT 23/12 A3004 RMK A01 T02320115  RH  048%=      5-min Rain = 0
KDC1 251409Z 12002KT 23/12 A3004 RMK A01 T02330115  RH  047%=      5-min Rain = 0
KDC1 251410Z 11001KT 23/12 A3004 RMK A01 T02330115  RH  047%=      5-min Rain = 0
KDC1 251411Z 11002KT 23/12 A3004 RMK A01 T02330117  RH  048%=      5-min Rain = 0
KDC1 251412Z 11002KT 23/12 A3004 RMK A01 T02310119  RH  049%=      5-min Rain = 0
KDC1 251413Z 12002KT 23/12 A3004 RMK A01 T02310120  RH  050%=      5-min Rain = 0
KDC1 251414Z 13002KT 23/13 A3004 RMK A01 T02310125  RH  051%=      5-min Rain = 0
KDC1 251415Z 12002KT 23/13 A3004 RMK A01 T02300125  RH  051%=      5-min Rain = 0
KDC1 251416Z 12002KT 23/13 A3004 RMK A01 T02300126  RH  052%=      5-min Rain = 0
KDC1 251417Z 13002KT 23/12 A3004 RMK A01 T02300123  RH  051%=      5-min Rain = 0
KDC1 251418Z 14002KT 23/13 A3004 RMK A01 T02310126  RH  052%=      5-min Rain = 0
KDC1 251419Z 14003KT 23/13 A3004 RMK A01 T02320132  RH  053%=      5-min Rain = 0
KDC1 251420Z 15003KT 23/14 A3004 RMK A01 T02330135  RH  054%=      5-min Rain = 0
KDC1 251421Z 14004KT 23/13 A3004 RMK A01 T02330134  RH  054%=      5-min Rain = 0
KDC1 251422Z 15003KT 23/13 A3004 RMK A01 T02330131  RH  053%=      5-min Rain = 0
KDC1 251423Z 15003KT 23/13 A3004 RMK A01 T02330132  RH  053%=      5-min Rain = 0
KDC1 251424Z 15004KT 23/13 A3004 RMK A01 T02320131  RH  053%=      5-min Rain = 0
KDC1 251425Z 13003KT 23/14 A3005 RMK A01 T02320136  RH  055%=      5-min Rain = 0
KDC1 251426Z 14004KT 23/13 A3005 RMK A01 T02320132  RH  053%=      5-min Rain = 0
KDC1 251427Z 15004KT 23/13 A3005 RMK A01 T02320134  RH  054%=      5-min Rain = 0
KDC1 251428Z 14004KT 23/14 A3005 RMK A01 T02320138  RH  056%=      5-min Rain = 0
KDC1 251429Z 13002KT 23/14 A3005 RMK A01 T02320142  RH  057%=      5-min Rain = 0
KDC1 251430Z 14003KT 23/14 A3005 RMK A01 T02340139  RH  055%=      5-min Rain = 0
KDC1 251431Z 14003KT 24/14 A3005 RMK A01 T02350140  RH  055%=      5-min Rain = 0
KDC1 251432Z 12003KT 24/14 A3005 RMK A01 T02360138  RH  054%=      5-min Rain = 0
KDC1 251433Z 12003KT 24/14 A3005 RMK A01 T02370137  RH  054%=      5-min Rain = 0
KDC1 251434Z 13002KT 24/14 A3005 RMK A01 T02380140  RH  054%=      5-min Rain = 0
KDC1 251435Z 13004KT 24/15 A3005 RMK A01 T02380145  RH  056%=      5-min Rain = 0
KDC1 251436Z 14005KT 24/14 A3005 RMK A01 T02370142  RH  055%=      5-min Rain = 0
KDC1 251437Z 14004KT 24/14 A3005 RMK A01 T02370143  RH  056%=      5-min Rain = 0
KDC1 251438Z 12004KT 24/15 A3005 RMK A01 T02370148  RH  057%=      5-min Rain = 0
KDC1 251439Z 12004KT 24/15 A3005 RMK A01 T02370146  RH  057%=      5-min Rain = 0
KDC1 251440Z 12004KT 24/14 A3005 RMK A01 T02370140  RH  055%=      5-min Rain = 0
KDC1 251441Z 12004KT 24/14 A3005 RMK A01 T02370141  RH  055%=      5-min Rain = 0
KDC1 251442Z 11004KT 24/14 A3005 RMK A01 T02370144  RH  056%=      5-min Rain = 0
KDC1 251443Z 12003KT 24/15 A3005 RMK A01 T02390146  RH  056%=      5-min Rain = 0
KDC1 251444Z 11003KT 24/15 A3005 RMK A01 T02410148  RH  056%=      5-min Rain = 0
KDC1 251445Z 11004KT 24/15 A3005 RMK A01 T02400146  RH  055%=      5-min Rain = 0
KDC1 251446Z 12005KT 24/14 A3005 RMK A01 T02400144  RH  055%=      5-min Rain = 0
KDC1 251447Z 12004KT 24/15 A3005 RMK A01 T02410149  RH  057%=      5-min Rain = 0
KDC1 251448Z 12004KT 24/15 A3005 RMK A01 T02420153  RH  058%=      5-min Rain = 0
KDC1 251449Z 12004KT 24/15 A3005 RMK A01 T02420152  RH  057%=      5-min Rain = 0
KDC1 251450Z 14003KT 24/16 A3005 RMK A01 T02430157  RH  059%=      5-min Rain = 0
KDC1 251451Z 14004KT 24/16 A3005 RMK A01 T02440157  RH  058%=      5-min Rain = 0
KDC1 251452Z 12006KT 25/16 A3005 RMK A01 T02450158  RH  058%=      5-min Rain = 0
KDC1 251453Z 14008KT 25/16 A3005 RMK A01 T02460156  RH  057%=      5-min Rain = 0
KDC1 251454Z 15009KT 25/16 A3005 RMK A01 T02460160  RH  059%=      5-min Rain = 0
KDC1 251455Z 13007KT 25/16 A3005 RMK A01 T02460164  RH  060%=      5-min Rain = 0
KDC1 251456Z 13009KT 25/17 A3005 RMK A01 T02470165  RH  060%=      5-min Rain = 0
KDC1 251457Z 12009KT 25/16 A3005 RMK A01 T02470158  RH  058%=      5-min Rain = 0
KDC1 251458Z 14006KT 25/17 A3005 RMK A01 T02470165  RH  060%=      5-min Rain = 0
KDC1 251459Z 13009KT 25/17 A3005 RMK A01 T02470167  RH  061%=      5-min Rain = 0
KDC1 251500Z 12009KT 25/16 A3005 RMK A01 T02480157  RH  057%=      5-min Rain = 0
KDC1 251501Z 12007KT 25/16 A3005 RMK A01 T02480157  RH  057%=      5-min Rain = 0
KDC1 251502Z 12008KT 25/16 A3005 RMK A01 T02480160  RH  058%=      5-min Rain = 0
KDC1 251503Z 12008KT 25/16 A3005 RMK A01 T02480157  RH  057%=      5-min Rain = 0
KDC1 251504Z 12009KT 25/16 A3005 RMK A01 T02480159  RH  058%=      5-min Rain = 0
KDC1 251505Z 12007KT 25/16 A3005 RMK A01 T02480162  RH  059%=      5-min Rain = 0
KDC1 251506Z 13008KT 25/16 A3005 RMK A01 T02480159  RH  058%=      5-min Rain = 0
KDC1 251507Z 13006KT 25/16 A3005 RMK A01 T02480160  RH  058%=      5-min Rain = 0
KDC1 251508Z 13006KT 25/16 A3005 RMK A01 T02490163  RH  059%=      5-min Rain = 0
KDC1 251509Z 12007KT 25/16 A3005 RMK A01 T02490164  RH  059%=      5-min Rain = 0
KDC1 251510Z 13008KT 25/16 A3005 RMK A01 T02500161  RH  058%=      5-min Rain = 0
KDC1 251511Z 13008KT 25/16 A3005 RMK A01 T02500159  RH  057%=      5-min Rain = 0
KDC1 251512Z 12006KT 25/16 A3005 RMK A01 T02510161  RH  058%=      5-min Rain = 0
KDC1 251513Z 12005KT 25/16 A3005 RMK A01 T02520163  RH  058%=      5-min Rain = 0
KDC1 251514Z 12008KT 25/16 A3005 RMK A01 T02530160  RH  056%=      5-min Rain = 0
KDC1 251515Z 13007KT 25/16 A3005 RMK A01 T02530157  RH  055%=      5-min Rain = 0
KDC1 251516Z 13006KT 25/16 A3005 RMK A01 T02530160  RH  056%=      5-min Rain = 0
KDC1 251517Z 12007KT 25/16 A3005 RMK A01 T02530162  RH  057%=      5-min Rain = 0
KDC1 251518Z 12006KT 25/16 A3005 RMK A01 T02540160  RH  056%=      5-min Rain = 0
KDC1 251519Z 11007KT 26/16 A3005 RMK A01 T02560160  RH  056%=      5-min Rain = 0
KDC1 251520Z 13007KT 26/16 A3005 RMK A01 T02560163  RH  056%=      5-min Rain = 0
KDC1 251521Z 13007KT 26/16 A3005 RMK A01 T02570164  RH  057%=      5-min Rain = 0
KDC1 251522Z 13006KT 26/17 A3005 RMK A01 T02560167  RH  058%=      5-min Rain = 0
KDC1 251523Z 13007KT 26/17 A3005 RMK A01 T02560171  RH  059%=      5-min Rain = 0
KDC1 251524Z 13008KT 26/16 A3005 RMK A01 T02560164  RH  057%=      5-min Rain = 0
KDC1 251525Z 13007KT 26/17 A3005 RMK A01 T02560165  RH  057%=      5-min Rain = 0
KDC1 251526Z 12008KT 26/16 A3005 RMK A01 T02560162  RH  056%=      5-min Rain = 0
KDC1 251527Z 14006KT 26/16 A3005 RMK A01 T02560163  RH  056%=      5-min Rain = 0
KDC1 251528Z 11005KT 26/16 A3005 RMK A01 T02570164  RH  057%=      5-min Rain = 0
KDC1 251529Z 11007KT 26/15 A3005 RMK A01 T02580154  RH  053%=      5-min Rain = 0
KDC1 251530Z 14007KT 26/16 A3005 RMK A01 T02590161  RH  055%=      5-min Rain = 0
KDC1 251531Z 14007KT 26/16 A3005 RMK A01 T02590159  RH  054%=      5-min Rain = 0
KDC1 251532Z 13007KT 26/16 A3005 RMK A01 T02580158  RH  054%=      5-min Rain = 0
KDC1 251533Z 14005KT 26/16 A3005 RMK A01 T02590160  RH  055%=      5-min Rain = 0
KDC1 251534Z 13006KT 26/16 A3005 RMK A01 T02590163  RH  055%=      5-min Rain = 0
KDC1 251535Z 12005KT 26/16 A3005 RMK A01 T02600160  RH  054%=      5-min Rain = 0
KDC1 251536Z 13006KT 26/16 A3005 RMK A01 T02610158  RH  053%=      5-min Rain = 0
KDC1 251537Z 13004KT 26/16 A3005 RMK A01 T02610159  RH  053%=      5-min Rain = 0
KDC1 251538Z 13004KT 26/16 A3005 RMK A01 T02620157  RH  053%=      5-min Rain = 0
KDC1 251539Z 13004KT 26/17 A3005 RMK A01 T02620167  RH  056%=      5-min Rain = 0
KDC1 251540Z 12006KT 26/16 A3005 RMK A01 T02630161  RH  054%=      5-min Rain = 0
KDC1 251541Z 13006KT 26/16 A3005 RMK A01 T02630157  RH  052%=      5-min Rain = 0
KDC1 251542Z 12005KT 26/16 A3005 RMK A01 T02620160  RH  053%=      5-min Rain = 0
KDC1 251543Z 13005KT 26/15 A3005 RMK A01 T02630154  RH  051%=      5-min Rain = 0
KDC1 251544Z 13004KT 26/15 A3005 RMK A01 T02640153  RH  051%=      5-min Rain = 0
KDC1 251545Z 14004KT 27/15 A3005 RMK A01 T02650154  RH  051%=      5-min Rain = 0
KDC1 251546Z 15006KT 27/16 A3005 RMK A01 T02660159  RH  052%=      5-min Rain = 0
KDC1 251547Z 16005KT 27/16 A3005 RMK A01 T02670156  RH  051%=      5-min Rain = 0
KDC1 251548Z 12004KT 27/15 A3005 RMK A01 T02660154  RH  050%=      5-min Rain = 0
KDC1 251549Z 13006KT 27/16 A3005 RMK A01 T02670158  RH  051%=      5-min Rain = 0
KDC1 251550Z 13006KT 27/16 A3005 RMK A01 T02690164  RH  053%=      5-min Rain = 0
KDC1 251551Z 14005KT 27/16 A3005 RMK A01 T02690164  RH  053%=      5-min Rain = 0
KDC1 251552Z 13004KT 27/17 A3005 RMK A01 T02690166  RH  053%=      5-min Rain = 0
KDC1 251553Z 12005KT 27/16 A3005 RMK A01 T02690161  RH  052%=      5-min Rain = 0
KDC1 251554Z 11005KT 27/16 A3005 RMK A01 T02690160  RH  051%=      5-min Rain = 0
KDC1 251555Z 11006KT 27/15 A3005 RMK A01 T02700153  RH  049%=      5-min Rain = 0
KDC1 251556Z 12006KT 27/15 A3005 RMK A01 T02690149  RH  048%=      5-min Rain = 0
KDC1 251557Z 12005KT 27/16 A3005 RMK A01 T02690155  RH  050%=      5-min Rain = 0
KDC1 251558Z 12003KT 27/15 A3005 RMK A01 T02690147  RH  047%=      5-min Rain = 0
KDC1 251559Z 13005KT 27/15 A3005 RMK A01 T02700149  RH  048%=      5-min Rain = 0
KDC1 251600Z 13005KT 27/16 A3005 RMK A01 T02700156  RH  050%=      5-min Rain = 0
KDC1 251601Z 12004KT 27/15 A3004 RMK A01 T02710151  RH  048%=      5-min Rain = 0
KDC1 251602Z 11004KT 27/15 A3004 RMK A01 T02700149  RH  047%=      5-min Rain = 0
KDC1 251603Z 10003KT 27/15 A3004 RMK A01 T02700149  RH  048%=      5-min Rain = 0
KDC1 251604Z 12003KT 27/15 A3004 RMK A01 T02710147  RH  047%=      5-min Rain = 0
KDC1 251605Z 13005KT 27/15 A3004 RMK A01 T02740151  RH  047%=      5-min Rain = 0
KDC1 251606Z 11005KT 28/15 A3004 RMK A01 T02750153  RH  047%=      5-min Rain = 0
KDC1 251607Z 11005KT 27/15 A3004 RMK A01 T02740150  RH  046%=      5-min Rain = 0
KDC1 251608Z 14005KT 27/16 A3004 RMK A01 T02740155  RH  048%=      5-min Rain = 0
KDC1 251609Z 13005KT 27/15 A3004 RMK A01 T02730153  RH  048%=      5-min Rain = 0
KDC1 251610Z 13003KT 27/15 A3004 RMK A01 T02730152  RH  047%=      5-min Rain = 0
KDC1 251611Z 14004KT 27/16 A3004 RMK A01 T02730158  RH  050%=      5-min Rain = 0
KDC1 251612Z 14003KT 27/15 A3004 RMK A01 T02740152  RH  047%=      5-min Rain = 0
KDC1 251613Z 15004KT 28/15 A3004 RMK A01 T02760151  RH  046%=      5-min Rain = 0
KDC1 251614Z 15004KT 28/15 A3005 RMK A01 T02770154  RH  047%=      5-min Rain = 0
KDC1 251615Z 13004KT 28/15 A3005 RMK A01 T02780153  RH  047%=      5-min Rain = 0
KDC1 251616Z 13005KT 28/16 A3005 RMK A01 T02790156  RH  047%=      5-min Rain = 0
KDC1 251617Z 14004KT 28/15 A3005 RMK A01 T02780154  RH  047%=      5-min Rain = 0
KDC1 251618Z 10004KT 28/15 A3005 RMK A01 T02780148  RH  045%=      5-min Rain = 0
KDC1 251619Z 13004KT 28/15 A3005 RMK A01 T02780149  RH  045%=      5-min Rain = 0
KDC1 251620Z 15003KT 28/15 A3005 RMK A01 T02780153  RH  046%=      5-min Rain = 0
KDC1 251621Z 17002KT 28/16 A3005 RMK A01 T02790156  RH  047%=      5-min Rain = 0
KDC1 251622Z 15002KT 28/16 A3005 RMK A01 T02810155  RH  046%=      5-min Rain = 0
KDC1 251623Z 11004KT 28/16 A3005 RMK A01 T02830159  RH  047%=      5-min Rain = 0
KDC1 251624Z 15005KT 28/15 A3005 RMK A01 T02840150  RH  044%=      5-min Rain = 0
KDC1 251625Z 16005KT 28/15 A3005 RMK A01 T02820148  RH  044%=      5-min Rain = 0
KDC1 251626Z 17004KT 28/15 A3005 RMK A01 T02810146  RH  044%=      5-min Rain = 0
KDC1 251627Z 15003KT 28/15 A3005 RMK A01 T02800145  RH  044%=      5-min Rain = 0
KDC1 251628Z 14004KT 28/14 A3005 RMK A01 T02800142  RH  043%=      5-min Rain = 0
KDC1 251629Z 12002KT 28/14 A3005 RMK A01 T02790141  RH  043%=      5-min Rain = 0
KDC1 251630Z 13003KT 28/14 A3005 RMK A01 T02800142  RH  043%=      5-min Rain = 0
KDC1 251631Z 16003KT 28/15 A3005 RMK A01 T02810145  RH  043%=      5-min Rain = 0
KDC1 251632Z 15004KT 28/15 A3005 RMK A01 T02820147  RH  044%=      5-min Rain = 0
KDC1 251633Z 13004KT 28/15 A3005 RMK A01 T02820151  RH  045%=      5-min Rain = 0
KDC1 251634Z 14003KT 28/14 A3005 RMK A01 T02830144  RH  043%=      5-min Rain = 0
KDC1 251635Z 10004KT 28/14 A3005 RMK A01 T02840144  RH  042%=      5-min Rain = 0
KDC1 251636Z 10004KT 28/14 A3005 RMK A01 T02840140  RH  041%=      5-min Rain = 0
KDC1 251637Z 11004KT 28/14 A3005 RMK A01 T02830142  RH  042%=      5-min Rain = 0
KDC1 251638Z 11004KT 28/14 A3005 RMK A01 T02830142  RH  042%=      5-min Rain = 0
KDC1 251639Z 11004KT 28/14 A3005 RMK A01 T02830143  RH  042%=      5-min Rain = 0
KDC1 251640Z 11004KT 28/15 A3005 RMK A01 T02820145  RH  043%=      5-min Rain = 0
KDC1 251641Z 10005KT 28/14 A3005 RMK A01 T02820141  RH  042%=      5-min Rain = 0
KDC1 251642Z 09003KT 28/14 A3005 RMK A01 T02820141  RH  042%=      5-min Rain = 0
KDC1 251643Z 10003KT 28/14 A3005 RMK A01 T02810142  RH  042%=      5-min Rain = 0
KDC1 251644Z 08004KT 28/14 A3005 RMK A01 T02820140  RH  042%=      5-min Rain = 0
KDC1 251645Z 10005KT 28/14 A3005 RMK A01 T02830140  RH  041%=      5-min Rain = 0
KDC1 251646Z 11006KT 29/14 A3005 RMK A01 T02860142  RH  042%=      5-min Rain = 0
KDC1 251647Z 11004KT 29/14 A3005 RMK A01 T02870144  RH  041%=      5-min Rain = 0
KDC1 251648Z 11004KT 29/14 A3005 RMK A01 T02870139  RH  040%=      5-min Rain = 0
KDC1 251649Z 11005KT 29/15 A3005 RMK A01 T02880146  RH  042%=      5-min Rain = 0
KDC1 251650Z 11005KT 29/14 A3005 RMK A01 T02880138  RH  040%=      5-min Rain = 0
KDC1 251651Z 12004KT 29/14 A3005 RMK A01 T02870137  RH  040%=      5-min Rain = 0
KDC1 251652Z 12004KT 29/15 A3005 RMK A01 T02870145  RH  042%=      5-min Rain = 0
KDC1 251653Z 11003KT 29/14 A3005 RMK A01 T02870137  RH  040%=      5-min Rain = 0
KDC1 251654Z 12006KT 29/14 A3005 RMK A01 T02880143  RH  041%=      5-min Rain = 0
KDC1 251655Z 12007KT 29/15 A3005 RMK A01 T02890147  RH  042%=      5-min Rain = 0
KDC1 251656Z 11005KT 29/15 A3005 RMK A01 T02890150  RH  043%=      5-min Rain = 0
KDC1 251657Z 12006KT 29/15 A3005 RMK A01 T02890148  RH  042%=      5-min Rain = 0
KDC1 251658Z 13007KT 29/15 A3005 RMK A01 T02890147  RH  042%=      5-min Rain = 0
KDC1 251659Z 13005KT 29/15 A3005 RMK A01 T02890148  RH  042%=      5-min Rain = 0
KDC1 251700Z 14004KT 29/15 A3005 RMK A01 T02890145  RH  041%=      5-min Rain = 0
KDC1 251701Z 12005KT 29/14 A3005 RMK A01 T02900136  RH  039%=      5-min Rain = 0
KDC1 251702Z 11005KT 29/14 A3005 RMK A01 T02900138  RH  039%=      5-min Rain = 0
KDC1 251703Z 11003KT 29/13 A3005 RMK A01 T02900134  RH  038%=      5-min Rain = 0
KDC1 251704Z 13004KT 29/14 A3005 RMK A01 T02910144  RH  041%=      5-min Rain = 0
KDC1 251705Z 13005KT 29/14 A3005 RMK A01 T02930141  RH  039%=      5-min Rain = 0
KDC1 251706Z 12005KT 29/16 A3005 RMK A01 T02920156  RH  043%=      5-min Rain = 0
KDC1 251707Z 15003KT 30/14 A3005 RMK A01 T02950143  RH  039%=      5-min Rain = 0
KDC1 251708Z 12002KT 30/14 A3005 RMK A01 T02960135  RH  037%=      5-min Rain = 0
KDC1 251709Z 11004KT 30/14 A3005 RMK A01 T02970142  RH  039%=      5-min Rain = 0
KDC1 251710Z 12003KT 30/14 A3005 RMK A01 T02970136  RH  037%=      5-min Rain = 0
KDC1 251711Z 13004KT 30/14 A3005 RMK A01 T02970144  RH  039%=      5-min Rain = 0
KDC1 251712Z 14005KT 30/14 A3005 RMK A01 T02980140  RH  038%=      5-min Rain = 0
KDC1 251713Z 11006KT 30/14 A3005 RMK A01 T02970138  RH  038%=      5-min Rain = 0
KDC1 251714Z 10005KT 29/14 A3004 RMK A01 T02940135  RH  038%=      5-min Rain = 0
KDC1 251715Z 11006KT 29/14 A3004 RMK A01 T02940138  RH  039%=      5-min Rain = 0
KDC1 251716Z 14006KT 30/15 A3004 RMK A01 T02950148  RH  041%=      5-min Rain = 0
KDC1 251717Z 12005KT 30/15 A3004 RMK A01 T02970146  RH  040%=      5-min Rain = 0
KDC1 251718Z 11006KT 30/14 A3004 RMK A01 T02980139  RH  038%=      5-min Rain = 0
KDC1 251719Z 11004KT 30/14 A3004 RMK A01 T02960138  RH  038%=      5-min Rain = 0
KDC1 251720Z 12002KT 30/13 A3004 RMK A01 T02950134  RH  037%=      5-min Rain = 0
KDC1 251721Z 13001KT 30/13 A3004 RMK A01 T02950133  RH  037%=      5-min Rain = 0
KDC1 251722Z 11004KT 30/14 A3004 RMK A01 T02980139  RH  038%=      5-min Rain = 0
KDC1 251723Z 13006KT 30/15 A3004 RMK A01 T02990147  RH  040%=      5-min Rain = 0
KDC1 251724Z 14003KT 30/14 A3004 RMK A01 T02980143  RH  039%=      5-min Rain = 0
KDC1 251725Z 13004KT 30/14 A3004 RMK A01 T02990142  RH  039%=      5-min Rain = 0
KDC1 251726Z 13002KT 30/14 A3004 RMK A01 T02980138  RH  038%=      5-min Rain = 0
KDC1 251727Z 07001KT 30/14 A3004 RMK A01 T02990138  RH  037%=      5-min Rain = 0
KDC1 251728Z 13003KT 30/14 A3004 RMK A01 T03010143  RH  038%=      5-min Rain = 0
KDC1 251729Z 12005KT 30/15 A3004 RMK A01 T03010148  RH  039%=      5-min Rain = 0
KDC1 251730Z 12003KT 30/14 A3004 RMK A01 T03010140  RH  037%=      5-min Rain = 0
KDC1 251731Z 12003KT 30/14 A3004 RMK A01 T03020143  RH  038%=      5-min Rain = 0
KDC1 251732Z 13007KT 30/16 A3004 RMK A01 T03030155  RH  041%=      5-min Rain = 0
KDC1 251733Z 13006KT 30/15 A3004 RMK A01 T03010147  RH  039%=      5-min Rain = 0
KDC1 251734Z 12005KT 30/15 A3004 RMK A01 T03000149  RH  040%=      5-min Rain = 0
KDC1 251735Z 12004KT 30/15 A3004 RMK A01 T03010153  RH  041%=      5-min Rain = 0
KDC1 251736Z 12003KT 30/15 A3004 RMK A01 T03020154  RH  041%=      5-min Rain = 0
KDC1 251737Z 10004KT 30/15 A3004 RMK A01 T03040145  RH  038%=      5-min Rain = 0
KDC1 251738Z 10003KT 30/14 A3004 RMK A01 T03040140  RH  037%=      5-min Rain = 0
KDC1 251739Z 09002KT 30/14 A3003 RMK A01 T03040139  RH  037%=      5-min Rain = 0
KDC1 251740Z 10001KT 30/14 A3003 RMK A01 T03040140  RH  037%=      5-min Rain = 0
KDC1 251741Z 09001KT 31/14 A3003 RMK A01 T03050140  RH  037%=      5-min Rain = 0
KDC1 251742Z 11001KT 31/14 A3003 RMK A01 T03060141  RH  037%=      5-min Rain = 0
KDC1 251743Z 08003KT 31/14 A3003 RMK A01 T03080142  RH  036%=      5-min Rain = 0
KDC1 251744Z 09003KT 31/14 A3003 RMK A01 T03090141  RH  036%=      5-min Rain = 0
KDC1 251745Z 12003KT 31/15 A3003 RMK A01 T03080148  RH  038%=      5-min Rain = 0
KDC1 251746Z 12003KT 31/15 A3003 RMK A01 T03070151  RH  039%=      5-min Rain = 0
KDC1 251747Z 13002KT 31/14 A3003 RMK A01 T03070144  RH  037%=      5-min Rain = 0
KDC1 251748Z 14001KT 31/14 A3003 RMK A01 T03070143  RH  037%=      5-min Rain = 0
KDC1 251749Z 12002KT 31/15 A3003 RMK A01 T03090146  RH  037%=      5-min Rain = 0
KDC1 251750Z 09005KT 31/15 A3003 RMK A01 T03110152  RH  038%=      5-min Rain = 0
KDC1 251751Z 10005KT 31/15 A3003 RMK A01 T03110146  RH  037%=      5-min Rain = 0
KDC1 251752Z 12006KT 31/16 A3003 RMK A01 T03100155  RH  039%=      5-min Rain = 0
KDC1 251753Z 12005KT 31/16 A3003 RMK A01 T03090157  RH  040%=      5-min Rain = 0
KDC1 251754Z 11007KT 31/15 A3003 RMK A01 T03080154  RH  039%=      5-min Rain = 0
KDC1 251755Z 11005KT 31/15 A3003 RMK A01 T03090152  RH  039%=      5-min Rain = 0
KDC1 251756Z 12006KT 31/15 A3003 RMK A01 T03090146  RH  037%=      5-min Rain = 0
KDC1 251757Z 10005KT 31/15 A3003 RMK A01 T03070147  RH  038%=      5-min Rain = 0
KDC1 251758Z 07005KT 31/14 A3003 RMK A01 T03070143  RH  037%=      5-min Rain = 0
KDC1 251759Z 08005KT 31/14 A3003 RMK A01 T03080142  RH  036%=      5-min Rain = 0
KDC1 251800Z 11003KT 31/14 A3002 RMK A01 T03100143  RH  036%=      5-min Rain = 0
KDC1 251801Z 08002KT 31/14 A3002 RMK A01 T03110144  RH  036%=      5-min Rain = 0
KDC1 251802Z 12003KT 31/14 A3002 RMK A01 T03120144  RH  036%=      5-min Rain = 0
KDC1 251803Z 12002KT 31/15 A3002 RMK A01 T03120147  RH  037%=      5-min Rain = 0
KDC1 251804Z 11003KT 31/15 A3002 RMK A01 T03120149  RH  037%=      5-min Rain = 0
KDC1 251805Z 11003KT 31/15 A3002 RMK A01 T03120145  RH  036%=      5-min Rain = 0
KDC1 251806Z 15005KT 31/16 A3002 RMK A01 T03130161  RH  040%=      5-min Rain = 0
KDC1 251807Z 16007KT 31/16 A3002 RMK A01 T03130161  RH  040%=      5-min Rain = 0
KDC1 251808Z 18006KT 31/15 A3002 RMK A01 T03140149  RH  037%=      5-min Rain = 0
KDC1 251809Z 17006KT 31/15 A3002 RMK A01 T03140151  RH  037%=      5-min Rain = 0
KDC1 251810Z 15005KT 31/17 A3002 RMK A01 T03140165  RH  041%=      5-min Rain = 0
KDC1 251811Z 15005KT 32/16 A3002 RMK A01 T03150157  RH  039%=      5-min Rain = 0
KDC1 251812Z 16004KT 31/14 A3002 RMK A01 T03140143  RH  036%=      5-min Rain = 0
KDC1 251813Z 15005KT 31/15 A3002 RMK A01 T03140150  RH  037%=      5-min Rain = 0
KDC1 251814Z 15005KT 32/15 A3002 RMK A01 T03150151  RH  037%=      5-min Rain = 0
KDC1 251815Z 13006KT 32/16 A3002 RMK A01 T03170155  RH  038%=      5-min Rain = 0
KDC1 251816Z 14007KT 32/16 A3002 RMK A01 T03170155  RH  038%=      5-min Rain = 0
KDC1 251817Z 14007KT 32/16 A3002 RMK A01 T03170159  RH  039%=      5-min Rain = 0
KDC1 251818Z 15008KT 32/16 A3002 RMK A01 T03160163  RH  040%=      5-min Rain = 0
KDC1 251819Z 14007KT 32/15 A3002 RMK A01 T03160148  RH  036%=      5-min Rain = 0
KDC1 251820Z 15005KT 32/14 A3002 RMK A01 T03150140  RH  034%=      5-min Rain = 0
KDC1 251821Z 16004KT 32/14 A3002 RMK A01 T03160138  RH  034%=      5-min Rain = 0
KDC1 251822Z 13003KT 32/16 A3002 RMK A01 T03170155  RH  038%=      5-min Rain = 0
KDC1 251823Z 12004KT 32/15 A3002 RMK A01 T03210148  RH  035%=      5-min Rain = 0
KDC1 251824Z 10003KT 32/14 A3002 RMK A01 T03240137  RH  032%=      5-min Rain = 0
KDC1 251825Z 09003KT 32/14 A3002 RMK A01 T03230135  RH  032%=      5-min Rain = 0
KDC1 251826Z 10003KT 32/13 A3002 RMK A01 T03210134  RH  032%=      5-min Rain = 0
KDC1 251827Z 09003KT 32/13 A3002 RMK A01 T03210134  RH  032%=      5-min Rain = 0
KDC1 251828Z 09002KT 32/14 A3002 RMK A01 T03200135  RH  032%=      5-min Rain = 0
KDC1 251829Z 10002KT 32/14 A3002 RMK A01 T03190137  RH  033%=      5-min Rain = 0
KDC1 251830Z 08004KT 32/14 A3002 RMK A01 T03190137  RH  033%=      5-min Rain = 0
KDC1 251831Z 08002KT 32/14 A3002 RMK A01 T03200137  RH  033%=      5-min Rain = 0
KDC1 251832Z 13004KT 32/14 A3002 RMK A01 T03210144  RH  034%=      5-min Rain = 0
KDC1 251833Z 15005KT 32/15 A3002 RMK A01 T03230149  RH  035%=      5-min Rain = 0
KDC1 251834Z 15005KT 32/15 A3002 RMK A01 T03210151  RH  036%=      5-min Rain = 0
KDC1 251835Z 13006KT 32/17 A3002 RMK A01 T03210169  RH  040%=      5-min Rain = 0
KDC1 251836Z 14007KT 32/16 A3001 RMK A01 T03200155  RH  037%=      5-min Rain = 0
KDC1 251837Z 13004KT 32/16 A3002 RMK A01 T03180157  RH  038%=      5-min Rain = 0
KDC1 251838Z 13004KT 32/14 A3001 RMK A01 T03190139  RH  034%=      5-min Rain = 0
KDC1 251839Z 13004KT 32/14 A3001 RMK A01 T03200142  RH  034%=      5-min Rain = 0
KDC1 251840Z 13004KT 32/14 A3001 RMK A01 T03210141  RH  034%=      5-min Rain = 0
KDC1 251841Z 14003KT 32/14 A3001 RMK A01 T03220140  RH  033%=      5-min Rain = 0
KDC1 251842Z 12003KT 32/14 A3001 RMK A01 T03220139  RH  033%=      5-min Rain = 0
KDC1 251843Z 11001KT 32/13 A3001 RMK A01 T03240133  RH  031%=      5-min Rain = 0
KDC1 251844Z 18001KT 33/13 A3001 RMK A01 T03250134  RH  031%=      5-min Rain = 0
KDC1 251845Z 15001KT 33/14 A3001 RMK A01 T03260140  RH  033%=      5-min Rain = 0
KDC1 251846Z 15001KT 33/14 A3001 RMK A01 T03280142  RH  032%=      5-min Rain = 0
KDC1 251847Z 16002KT 33/14 A3001 RMK A01 T03310139  RH  031%=      5-min Rain = 0
KDC1 251848Z 14003KT 33/14 A3001 RMK A01 T03330144  RH  032%=      5-min Rain = 0
KDC1 251849Z 13003KT 33/15 A3001 RMK A01 T03310149  RH  033%=      5-min Rain = 0
KDC1 251850Z 12001KT 33/13 A3001 RMK A01 T03290133  RH  031%=      5-min Rain = 0
KDC1 251851Z 32000KT 33/12 A3001 RMK A01 T03290123  RH  029%=      5-min Rain = 0
KDC1 251852Z 08000KT 33/12 A3001 RMK A01 T03300122  RH  028%=      5-min Rain = 0
KDC1 251853Z 04000KT 33/12 A3001 RMK A01 T03310122  RH  028%=      5-min Rain = 0
KDC1 251854Z 13001KT 33/13 A3001 RMK A01 T03340127  RH  028%=      5-min Rain = 0
KDC1 251855Z 12001KT 34/13 A3001 RMK A01 T03360126  RH  028%=      5-min Rain = 0
KDC1 251856Z 11004KT 34/13 A3001 RMK A01 T03360126  RH  028%=      5-min Rain = 0
KDC1 251857Z 09003KT 34/12 A3001 RMK A01 T03350124  RH  028%=      5-min Rain = 0
KDC1 251858Z 10002KT 33/12 A30 RMK A01 T03330124  RH  028%=      5-min Rain = 0
KDC1 251859Z 10005KT 33/13 A30 RMK A01 T03340129  RH  029%=      5-min Rain = 0
KDC1 251900Z 11005KT 34/13 A30 RMK A01 T03350134  RH  030%=      5-min Rain = 0
KDC1 251901Z 12003KT 34/12 A30 RMK A01 T03350124  RH  028%=      5-min Rain = 0
KDC1 251902Z 12003KT 33/13 A30 RMK A01 T03340127  RH  029%=      5-min Rain = 0
KDC1 251903Z 11004KT 33/13 A30 RMK A01 T03340132  RH  030%=      5-min Rain = 0
KDC1 251904Z 09006KT 33/12 A30 RMK A01 T03320123  RH  028%=      5-min Rain = 0
KDC1 251905Z 10005KT 33/12 A30 RMK A01 T03310123  RH  028%=      5-min Rain = 0
KDC1 251906Z 08003KT 33/12 A30 RMK A01 T03330121  RH  028%=      5-min Rain = 0
KDC1 251907Z 06002KT 33/12 A30 RMK A01 T03330119  RH  027%=      5-min Rain = 0
KDC1 251908Z 06001KT 33/12 A30 RMK A01 T03340120  RH  027%=      5-min Rain = 0
KDC1 251909Z 10002KT 34/12 A30 RMK A01 T03360121  RH  027%=      5-min Rain = 0
KDC1 251910Z 06001KT 34/12 A30 RMK A01 T03370122  RH  027%=      5-min Rain = 0
KDC1 251911Z 10002KT 34/12 A30 RMK A01 T03390121  RH  027%=      5-min Rain = 0
KDC1 251912Z 10006KT 34/12 A30 RMK A01 T03390119  RH  026%=      5-min Rain = 0
KDC1 251913Z 11004KT 34/12 A30 RMK A01 T03380121  RH  027%=      5-min Rain = 0
KDC1 251914Z 12005KT 34/13 A30 RMK A01 T03370132  RH  029%=      5-min Rain = 0
KDC1 251915Z 11006KT 34/12 A30 RMK A01 T03360122  RH  027%=      5-min Rain = 0
KDC1 251916Z 11006KT 34/12 A30 RMK A01 T03350124  RH  028%=      5-min Rain = 0
KDC1 251917Z 11005KT 34/12 A30 RMK A01 T03370121  RH  027%=      5-min Rain = 0
KDC1 251918Z 12005KT 34/12 A30 RMK A01 T03380118  RH  026%=      5-min Rain = 0
KDC1 251919Z 13004KT 34/12 A30 RMK A01 T03380115  RH  026%=      5-min Rain = 0
KDC1 251920Z 11005KT 34/13 A2999 RMK A01 T03370126  RH  028%=      5-min Rain = 0
KDC1 251921Z 11005KT 34/11 A2999 RMK A01 T03380108  RH  025%=      5-min Rain = 0
KDC1 251922Z 11007KT 34/11 A2999 RMK A01 T03380109  RH  025%=      5-min Rain = 0
KDC1 251923Z 11005KT 34/11 A2999 RMK A01 T03360110  RH  025%=      5-min Rain = 0
KDC1 251924Z 11004KT 34/11 A2999 RMK A01 T03350113  RH  026%=      5-min Rain = 0
KDC1 251925Z 09005KT 34/11 A2999 RMK A01 T03360112  RH  025%=      5-min Rain = 0
KDC1 251926Z 10006KT 34/12 A2999 RMK A01 T03370115  RH  026%=      5-min Rain = 0
KDC1 251927Z 11005KT 34/11 A2999 RMK A01 T03380112  RH  025%=      5-min Rain = 0
KDC1 251928Z 10006KT 34/11 A2999 RMK A01 T03380114  RH  026%=      5-min Rain = 0
KDC1 251929Z 09005KT 34/11 A2999 RMK A01 T03370114  RH  026%=      5-min Rain = 0
KDC1 251930Z 08004KT 34/11 A2999 RMK A01 T03380109  RH  025%=      5-min Rain = 0
KDC1 251931Z 08006KT 34/11 A2999 RMK A01 T03400109  RH  025%=      5-min Rain = 0
KDC1 251932Z 07006KT 34/11 A2999 RMK A01 T03410108  RH  024%=      5-min Rain = 0
KDC1 251933Z 11005KT 34/11 A2999 RMK A01 T03420109  RH  024%=      5-min Rain = 0
KDC1 251934Z 12004KT 34/13 A2999 RMK A01 T03440126  RH  027%=      5-min Rain = 0
KDC1 251935Z 11003KT 34/13 A2999 RMK A01 T03440126  RH  027%=      5-min Rain = 0
KDC1 251936Z 10003KT 34/12 A2999 RMK A01 T03440116  RH  025%=      5-min Rain = 0
KDC1 251937Z 14004KT 35/12 A2999 RMK A01 T03460119  RH  025%=      5-min Rain = 0
KDC1 251938Z 12003KT 35/11 A2998 RMK A01 T03450112  RH  024%=      5-min Rain = 0
KDC1 251939Z 11002KT 34/11 A2998 RMK A01 T03430109  RH  024%=      5-min Rain = 0
KDC1 251940Z 08003KT 34/11 A2998 RMK A01 T03420110  RH  024%=      5-min Rain = 0
KDC1 251941Z 06002KT 34/11 A2998 RMK A01 T03430109  RH  024%=      5-min Rain = 0
KDC1 251942Z 05002KT 34/11 A2998 RMK A01 T03440111  RH  024%=      5-min Rain = 0
KDC1 251943Z 08001KT 35/11 A2998 RMK A01 T03450112  RH  024%=      5-min Rain = 0
KDC1 251944Z 14001KT 35/11 A2998 RMK A01 T03450112  RH  024%=      5-min Rain = 0
KDC1 251945Z 13003KT 35/12 A2998 RMK A01 T03470116  RH  025%=      5-min Rain = 0
KDC1 251946Z 11002KT 35/12 A2998 RMK A01 T03490122  RH  025%=      5-min Rain = 0
KDC1 251947Z 04003KT 35/11 A2998 RMK A01 T03510112  RH  024%=      5-min Rain = 0
KDC1 251948Z 13004KT 35/13 A2998 RMK A01 T03500129  RH  026%=      5-min Rain = 0
KDC1 251949Z 12003KT 35/13 A2998 RMK A01 T03490126  RH  026%=      5-min Rain = 0
KDC1 251950Z 11002KT 35/13 A2998 RMK A01 T03490129  RH  026%=      5-min Rain = 0
KDC1 251951Z 13006KT 35/13 A2998 RMK A01 T03500125  RH  026%=      5-min Rain = 0
KDC1 251952Z 13006KT 35/13 A2998 RMK A01 T03490130  RH  027%=      5-min Rain = 0
KDC1 251953Z 13005KT 35/15 A2998 RMK A01 T03470145  RH  030%=      5-min Rain = 0
KDC1 251954Z 12005KT 35/13 A2998 RMK A01 T03470131  RH  027%=      5-min Rain = 0
KDC1 251955Z 10005KT 35/12 A2998 RMK A01 T03450117  RH  025%=      5-min Rain = 0
KDC1 251956Z 10004KT 34/12 A2998 RMK A01 T03440115  RH  025%=      5-min Rain = 0
KDC1 251957Z 10004KT 34/12 A2997 RMK A01 T03440121  RH  026%=      5-min Rain = 0
KDC1 251958Z 10005KT 35/12 A2997 RMK A01 T03460120  RH  025%=      5-min Rain = 0
KDC1 251959Z 10006KT 35/13 A2997 RMK A01 T03480131  RH  027%=      5-min Rain = 0
KDC1 252000Z 10004KT 35/12 A2997 RMK A01 T03490120  RH  025%=      5-min Rain = 0
KDC1 252001Z 08006KT 35/12 A2997 RMK A01 T03480116  RH  024%=      5-min Rain = 0
KDC1 252002Z 06005KT 35/11 A2997 RMK A01 T03490114  RH  024%=      5-min Rain = 0
KDC1 252003Z 04003KT 35/11 A2997 RMK A01 T03480112  RH  024%=      5-min Rain = 0
KDC1 252004Z 11002KT 35/11 A2997 RMK A01 T03470113  RH  024%=      5-min Rain = 0
KDC1 252005Z 12002KT 35/11 A2997 RMK A01 T03480114  RH  024%=      5-min Rain = 0
KDC1 252006Z 12004KT 35/12 A2997 RMK A01 T03490123  RH  026%=      5-min Rain = 0
KDC1 252007Z 12005KT 35/12 A2997 RMK A01 T03490123  RH  026%=      5-min Rain = 0
KDC1 252008Z 13005KT 35/12 A2997 RMK A01 T03490123  RH  026%=      5-min Rain = 0
KDC1 252009Z 15003KT 35/12 A2997 RMK A01 T03490122  RH  026%=      5-min Rain = 0
KDC1 252010Z 13002KT 35/12 A2997 RMK A01 T03490118  RH  025%=      5-min Rain = 0
KDC1 252011Z 12003KT 35/13 A2997 RMK A01 T03500128  RH  026%=      5-min Rain = 0
KDC1 252012Z 13007KT 35/14 A2997 RMK A01 T03530142  RH  028%=      5-min Rain = 0
KDC1 252013Z 11007KT 35/14 A2997 RMK A01 T03500137  RH  028%=      5-min Rain = 0
KDC1 252014Z 12010KT 35/12 A2997 RMK A01 T03500124  RH  026%=      5-min Rain = 0
KDC1 252015Z 12007KT 35/12 A2997 RMK A01 T03510116  RH  024%=      5-min Rain = 0
KDC1 252016Z 09005KT 35/12 A2997 RMK A01 T03490115  RH  024%=      5-min Rain = 0
KDC1 252017Z 11003KT 35/10 A2997 RMK A01 T03510104  RH  022%=      5-min Rain = 0
KDC1 252018Z 13003KT 35/10 A2996 RMK A01 T03520099  RH  021%=      5-min Rain = 0
KDC1 252019Z 16003KT 35/11 A2996 RMK A01 T03530110  RH  023%=      5-min Rain = 0
KDC1 252020Z 17004KT 35/11 A2996 RMK A01 T03530109  RH  023%=      5-min Rain = 0
KDC1 252021Z 19002KT 35/10 A2996 RMK A01 T03520095  RH  021%=      5-min Rain = 0
KDC1 252022Z 19000KT 35/10 A2996 RMK A01 T03520096  RH  021%=      5-min Rain = 0
KDC1 252023Z 15002KT 35/10 A2996 RMK A01 T03540099  RH  021%=      5-min Rain = 0
KDC1 252024Z 12004KT 36/13 A2996 RMK A01 T03560131  RH  026%=      5-min Rain = 0
KDC1 252025Z 14003KT 36/12 A2996 RMK A01 T03570123  RH  025%=      5-min Rain = 0
KDC1 252026Z 13004KT 36/13 A2996 RMK A01 T03570126  RH  025%=      5-min Rain = 0
KDC1 252027Z 13005KT 36/13 A2996 RMK A01 T03570134  RH  026%=      5-min Rain = 0
KDC1 252028Z 14004KT 36/11 A2996 RMK A01 T03560112  RH  023%=      5-min Rain = 0
KDC1 252029Z 13004KT 36/11 A2996 RMK A01 T03560111  RH  023%=      5-min Rain = 0
KDC1 252030Z 12003KT 36/11 A2996 RMK A01 T03550107  RH  022%=      5-min Rain = 0
KDC1 252031Z 13004KT 36/12 A2996 RMK A01 T03550121  RH  024%=      5-min Rain = 0
KDC1 252032Z 14007KT 35/15 A2996 RMK A01 T03540150  RH  030%=      5-min Rain = 0
KDC1 252033Z 14004KT 35/13 A2996 RMK A01 T03520127  RH  026%=      5-min Rain = 0
KDC1 252034Z 13004KT 35/13 A2996 RMK A01 T03530131  RH  026%=      5-min Rain = 0
KDC1 252035Z 11007KT 35/15 A2996 RMK A01 T03540146  RH  029%=      5-min Rain = 0
KDC1 252036Z 11007KT 36/13 A2996 RMK A01 T03550131  RH  026%=      5-min Rain = 0
KDC1 252037Z 11007KT 36/13 A2995 RMK A01 T03550133  RH  026%=      5-min Rain = 0
KDC1 252038Z 12008KT 36/14 A2995 RMK A01 T03550144  RH  028%=      5-min Rain = 0
KDC1 252039Z 11008KT 35/13 A2995 RMK A01 T03520126  RH  026%=      5-min Rain = 0
KDC1 252040Z 11006KT 35/11 A2995 RMK A01 T03510114  RH  024%=      5-min Rain = 0
KDC1 252041Z 12006KT 35/14 A2995 RMK A01 T03530136  RH  027%=      5-min Rain = 0
KDC1 252042Z 12004KT 35/12 A2995 RMK A01 T03540117  RH  024%=      5-min Rain = 0
KDC1 252043Z 13004KT 35/14 A2995 RMK A01 T03540139  RH  028%=      5-min Rain = 0
KDC1 252044Z 11004KT 35/14 A2995 RMK A01 T03530142  RH  028%=      5-min Rain = 0
KDC1 252045Z 12006KT 35/12 A2995 RMK A01 T03530117  RH  024%=      5-min Rain = 0
KDC1 252046Z 14006KT 35/13 A2995 RMK A01 T03540131  RH  026%=      5-min Rain = 0
KDC1 252047Z 14005KT 35/14 A2995 RMK A01 T03540136  RH  027%=      5-min Rain = 0
KDC1 252048Z 10003KT 36/12 A2995 RMK A01 T03560116  RH  024%=      5-min Rain = 0
KDC1 252049Z 10004KT 36/09 A2995 RMK A01 T03570089  RH  019%=      5-min Rain = 0
KDC1 252050Z 11007KT 36/11 A2995 RMK A01 T03590106  RH  022%=      5-min Rain = 0
KDC1 252051Z 10006KT 36/11 A2995 RMK A01 T03600107  RH  022%=      5-min Rain = 0
KDC1 252052Z 12007KT 36/12 A2995 RMK A01 T03600115  RH  023%=      5-min Rain = 0
KDC1 252053Z 10008KT 36/11 A2995 RMK A01 T03600114  RH  023%=      5-min Rain = 0
KDC1 252054Z 08005KT 36/09 A2995 RMK A01 T03580086  RH  019%=      5-min Rain = 0
KDC1 252055Z 08006KT 36/08 A2994 RMK A01 T03570081  RH  018%=      5-min Rain = 0
KDC1 252056Z 08009KT 36/08 A2994 RMK A01 T03600080  RH  018%=      5-min Rain = 0
KDC1 252057Z 08006KT 36/09 A2994 RMK A01 T03640087  RH  019%=      5-min Rain = 0
KDC1 252058Z 10006KT 37/09 A2994 RMK A01 T03660090  RH  019%=      5-min Rain = 0
KDC1 252059Z 12007G12KT 37/10 A2994 RMK A01 T03650104  RH  021%=      5-min Rain = 0
KDC1 252100Z 12008KT 36/15 A2994 RMK A01 T03600147  RH  028%=      5-min Rain = 0
KDC1 252101Z 11009KT 35/16 A2994 RMK A01 T03540160  RH  032%=      5-min Rain = 0
KDC1 252102Z 11009KT 35/13 A2994 RMK A01 T03540129  RH  026%=      5-min Rain = 0
KDC1 252103Z 11009KT 35/13 A2994 RMK A01 T03540125  RH  025%=      5-min Rain = 0
KDC1 252104Z 12011KT 35/15 A2994 RMK A01 T03540150  RH  030%=      5-min Rain = 0
KDC1 252105Z 11010KT 35/15 A2994 RMK A01 T03520150  RH  030%=      5-min Rain = 0
KDC1 252106Z 11008KT 35/14 A2994 RMK A01 T03490138  RH  028%=      5-min Rain = 0
KDC1 252107Z 11008KT 35/12 A2994 RMK A01 T03490124  RH  026%=      5-min Rain = 0
KDC1 252108Z 10007KT 35/11 A2994 RMK A01 T03500106  RH  023%=      5-min Rain = 0
KDC1 252109Z 10006KT 35/11 A2994 RMK A01 T03520112  RH  023%=      5-min Rain = 0
KDC1 252110Z 10009KT 35/14 A2994 RMK A01 T03540138  RH  028%=      5-min Rain = 0
KDC1 252111Z 09010KT 36/11 A2994 RMK A01 T03550109  RH  023%=      5-min Rain = 0
KDC1 252112Z 10011KT 36/12 A2994 RMK A01 T03580119  RH  024%=      5-min Rain = 0
KDC1 252113Z 09007KT 36/09 A2993 RMK A01 T03570090  RH  020%=      5-min Rain = 0
KDC1 252114Z 08010KT 36/10 A2993 RMK A01 T03610096  RH  020%=      5-min Rain = 0
KDC1 252115Z 08010KT 36/08 A2993 RMK A01 T03640084  RH  018%=      5-min Rain = 0
KDC1 252116Z 08006KT 36/08 A2993 RMK A01 T03640082  RH  018%=      5-min Rain = 0
KDC1 252117Z 12005KT 36/11 A2993 RMK A01 T03640107  RH  021%=      5-min Rain = 0
KDC1 252118Z 15006KT 36/14 A2993 RMK A01 T03620137  RH  026%=      5-min Rain = 0
KDC1 252119Z 15005KT 36/12 A2993 RMK A01 T03590124  RH  024%=      5-min Rain = 0
KDC1 252120Z 16005KT 36/09 A2993 RMK A01 T03590094  RH  020%=      5-min Rain = 0
KDC1 252121Z 15004KT 36/08 A2993 RMK A01 T03600081  RH  018%=      5-min Rain = 0
KDC1 252122Z 11002KT 36/08 A2993 RMK A01 T03610078  RH  018%=      5-min Rain = 0
KDC1 252123Z 06002KT 36/07 A2993 RMK A01 T03620073  RH  017%=      5-min Rain = 0
KDC1 252124Z 02003KT 36/07 A2993 RMK A01 T03630073  RH  017%=      5-min Rain = 0
KDC1 252125Z 02002KT 37/08 A2993 RMK A01 T03650075  RH  017%=      5-min Rain = 0
KDC1 252126Z 15003KT 37/09 A2993 RMK A01 T03670087  RH  018%=      5-min Rain = 0
KDC1 252127Z 19004KT 37/10 A2993 RMK A01 T03650096  RH  020%=      5-min Rain = 0
KDC1 252128Z 19004KT 36/10 A2993 RMK A01 T03620097  RH  020%=      5-min Rain = 0
KDC1 252129Z 22004KT 36/09 A2993 RMK A01 T03610090  RH  019%=      5-min Rain = 0
KDC1 252130Z 20003KT 36/08 A2993 RMK A01 T03610079  RH  018%=      5-min Rain = 0
KDC1 252131Z 19004KT 36/08 A2993 RMK A01 T03630081  RH  018%=      5-min Rain = 0
KDC1 252132Z 20002KT 37/08 A2993 RMK A01 T03650082  RH  018%=      5-min Rain = 0
KDC1 252133Z 23004KT 37/08 A2993 RMK A01 T03650078  RH  017%=      5-min Rain = 0
KDC1 252134Z 23003KT 37/07 A2993 RMK A01 T03680071  RH  016%=      5-min Rain = 0
KDC1 252135Z 22003KT 37/07 A2993 RMK A01 T03710072  RH  016%=      5-min Rain = 0
KDC1 252136Z 21002KT 37/06 A2993 RMK A01 T03720059  RH  015%=      5-min Rain = 0
KDC1 252137Z 22001KT 37/06 A2993 RMK A01 T03720056  RH  014%=      5-min Rain = 0
KDC1 252138Z 13001KT 37/06 A2993 RMK A01 T03720056  RH  014%=      5-min Rain = 0
KDC1 252139Z 15003KT 37/09 A2993 RMK A01 T03720094  RH  019%=      5-min Rain = 0
KDC1 252140Z 15004KT 37/12 A2993 RMK A01 T03690116  RH  022%=      5-min Rain = 0
KDC1 252141Z 15004KT 37/11 A2993 RMK A01 T03650108  RH  021%=      5-min Rain = 0
KDC1 252142Z 15003KT 36/11 A2992 RMK A01 T03610112  RH  022%=      5-min Rain = 0
KDC1 252143Z 13003KT 36/11 A2992 RMK A01 T03600107  RH  022%=      5-min Rain = 0
KDC1 252144Z 12007KT 36/13 A2992 RMK A01 T03580131  RH  026%=      5-min Rain = 0
KDC1 252145Z 13006KT 36/14 A2992 RMK A01 T03570140  RH  027%=      5-min Rain = 0
KDC1 252146Z 09003KT 36/11 A2992 RMK A01 T03570107  RH  022%=      5-min Rain = 0
KDC1 252147Z 13007KT 36/13 A2992 RMK A01 T03580133  RH  026%=      5-min Rain = 0
KDC1 252148Z 12004KT 36/10 A2992 RMK A01 T03570104  RH  021%=      5-min Rain = 0
KDC1 252149Z 12000KT 36/10 A2992 RMK A01 T03580096  RH  020%=      5-min Rain = 0
KDC1 252150Z 11002KT 36/10 A2992 RMK A01 T03600096  RH  020%=      5-min Rain = 0
KDC1 252151Z 11005KT 36/12 A2992 RMK A01 T03600123  RH  024%=      5-min Rain = 0
KDC1 252152Z 07008KT 36/11 A2992 RMK A01 T03600107  RH  022%=      5-min Rain = 0
KDC1 252153Z 06008KT 36/09 A2992 RMK A01 T03600094  RH  020%=      5-min Rain = 0
KDC1 252154Z 04006KT 36/09 A2992 RMK A01 T03600092  RH  020%=      5-min Rain = 0
KDC1 252155Z 05004KT 36/09 A2992 RMK A01 T03590093  RH  020%=      5-min Rain = 0
KDC1 252156Z 04005KT 36/09 A2992 RMK A01 T03580093  RH  020%=      5-min Rain = 0
KDC1 252157Z 04006KT 36/09 A2992 RMK A01 T03580093  RH  020%=      5-min Rain = 0
KDC1 252158Z 05002KT 36/09 A2992 RMK A01 T03580092  RH  020%=      5-min Rain = 0
KDC1 252159Z 01002KT 36/09 A2992 RMK A01 T03570092  RH  020%=      5-min Rain = 0
KDC1 252200Z 35002KT 36/09 A2992 RMK A01 T03570091  RH  020%=      5-min Rain = 0
KDC1 252201Z 01001KT 36/09 A2992 RMK A01 T03570090  RH  020%=      5-min Rain = 0
KDC1 252202Z 12002KT 36/10 A2992 RMK A01 T03580095  RH  020%=      5-min Rain = 0
KDC1 252203Z 10006KT 36/12 A2992 RMK A01 T03570120  RH  024%=      5-min Rain = 0
KDC1 252204Z 08006KT 35/10 A2992 RMK A01 T03530101  RH  022%=      5-min Rain = 0
KDC1 252205Z 13008KT 35/14 A2992 RMK A01 T03510135  RH  027%=      5-min Rain = 0
KDC1 252206Z 12008KT 34/14 A2992 RMK A01 T03420139  RH  030%=      5-min Rain = 0
KDC1 252207Z 11007KT 34/14 A2992 RMK A01 T03360142  RH  031%=      5-min Rain = 0
KDC1 252208Z 11007KT 34/11 A2992 RMK A01 T03350106  RH  025%=      5-min Rain = 0
KDC1 252209Z 12007KT 34/09 A2992 RMK A01 T03420093  RH  022%=      5-min Rain = 0
KDC1 252210Z 11007KT 35/09 A2992 RMK A01 T03470092  RH  021%=      5-min Rain = 0
KDC1 252211Z 10004KT 35/09 A2992 RMK A01 T03510087  RH  020%=      5-min Rain = 0
KDC1 252212Z 11005KT 35/09 A2992 RMK A01 T03540086  RH  019%=      5-min Rain = 0
KDC1 252213Z 12005KT 36/09 A2992 RMK A01 T03560090  RH  020%=      5-min Rain = 0
KDC1 252214Z 13005KT 36/09 A2992 RMK A01 T03550090  RH  020%=      5-min Rain = 0
KDC1 252215Z 14003KT 35/08 A2992 RMK A01 T03540084  RH  019%=      5-min Rain = 0
KDC1 252216Z 13002KT 35/08 A2992 RMK A01 T03540084  RH  019%=      5-min Rain = 0
KDC1 252217Z 13001KT 35/08 A2992 RMK A01 T03540082  RH  019%=      5-min Rain = 0
KDC1 252218Z 13002KT 36/09 A2992 RMK A01 T03550087  RH  019%=      5-min Rain = 0
KDC1 252219Z 15001KT 36/11 A2992 RMK A01 T03560107  RH  022%=      5-min Rain = 0
KDC1 252220Z 16002KT 36/12 A2992 RMK A01 T03550121  RH  024%=      5-min Rain = 0
KDC1 252221Z 16002KT 35/11 A2992 RMK A01 T03520107  RH  023%=      5-min Rain = 0
KDC1 252222Z 14002KT 35/10 A2992 RMK A01 T03520099  RH  021%=      5-min Rain = 0
KDC1 252223Z 14002KT 35/09 A2992 RMK A01 T03540093  RH  020%=      5-min Rain = 0
KDC1 252224Z 17002KT 36/10 A2992 RMK A01 T03570101  RH  021%=      5-min Rain = 0
KDC1 252225Z 17001KT 36/09 A2992 RMK A01 T03590089  RH  019%=      5-min Rain = 0
KDC1 252226Z 29000KT 36/07 A2992 RMK A01 T03620070  RH  017%=      5-min Rain = 0
KDC1 252227Z 26001KT 36/07 A2991 RMK A01 T03640071  RH  017%=      5-min Rain = 0
KDC1 252228Z 26002KT 37/07 A2991 RMK A01 T03680071  RH  016%=      5-min Rain = 0
KDC1 252229Z 25001KT 37/07 A2991 RMK A01 T03690071  RH  016%=      5-min Rain = 0
KDC1 252230Z 25001KT 37/08 A2991 RMK A01 T03710079  RH  017%=      5-min Rain = 0
KDC1 252231Z 13002KT 37/08 A2991 RMK A01 T03720084  RH  017%=      5-min Rain = 0
KDC1 252232Z 11003KT 37/08 A2991 RMK A01 T03720078  RH  017%=      5-min Rain = 0
KDC1 252233Z 11003KT 37/09 A2991 RMK A01 T03700085  RH  018%=      5-min Rain = 0
KDC1 252234Z 11002KT 37/07 A2991 RMK A01 T03690070  RH  016%=      5-min Rain = 0
KDC1 252235Z 12001KT 37/07 A2991 RMK A01 T03690069  RH  016%=      5-min Rain = 0
KDC1 252236Z 15000KT 37/07 A2991 RMK A01 T03690066  RH  016%=      5-min Rain = 0
KDC1 252237Z 01000KT 37/07 A2991 RMK A01 T03700068  RH  016%=      5-min Rain = 0
KDC1 252238Z 09001KT 37/07 A2991 RMK A01 T03730067  RH  015%=      5-min Rain = 0
KDC1 252239Z 13002KT 37/07 A2991 RMK A01 T03740069  RH  016%=      5-min Rain = 0
KDC1 252240Z 14003KT 37/10 A2991 RMK A01 T03720103  RH  020%=      5-min Rain = 0
KDC1 252241Z 13005KT 37/14 A2991 RMK A01 T03680141  RH  026%=      5-min Rain = 0
KDC1 252242Z 12005G10KT 36/09 A2991 RMK A01 T03630087  RH  019%=      5-min Rain = 0
KDC1 252243Z 13008KT 36/14 A2991 RMK A01 T03590137  RH  027%=      5-min Rain = 0
KDC1 252244Z 14007KT 35/13 A2991 RMK A01 T03530128  RH  026%=      5-min Rain = 0
KDC1 252245Z 14005KT 35/13 A2991 RMK A01 T03480134  RH  028%=      5-min Rain = 0
KDC1 252246Z 13004KT 34/13 A2991 RMK A01 T03440125  RH  027%=      5-min Rain = 0
KDC1 252247Z 13004KT 34/12 A2991 RMK A01 T03420116  RH  025%=      5-min Rain = 0
KDC1 252248Z 14005KT 34/14 A2991 RMK A01 T03420140  RH  030%=      5-min Rain = 0
KDC1 252249Z 15006KT 34/15 A2991 RMK A01 T03400146  RH  031%=      5-min Rain = 0
KDC1 252250Z 15006KT 34/14 A2991 RMK A01 T03370142  RH  031%=      5-min Rain = 0
KDC1 252251Z 14007KT 34/14 A2991 RMK A01 T03350138  RH  030%=      5-min Rain = 0
KDC1 252252Z 15008KT 33/14 A2991 RMK A01 T03310144  RH  032%=      5-min Rain = 0
KDC1 252253Z 15007KT 33/14 A2991 RMK A01 T03280136  RH  031%=      5-min Rain = 0
KDC1 252254Z 16006KT 33/14 A2991 RMK A01 T03260141  RH  033%=      5-min Rain = 0
KDC1 252255Z 15006KT 32/14 A2991 RMK A01 T03240140  RH  033%=      5-min Rain = 0
KDC1 252256Z 15007KT 33/13 A2991 RMK A01 T03250125  RH  030%=      5-min Rain = 0
KDC1 252257Z 14007KT 33/12 A2991 RMK A01 T03280118  RH  028%=      5-min Rain = 0
KDC1 252258Z 14007KT 33/14 A2991 RMK A01 T03280135  RH  031%=      5-min Rain = 0
KDC1 252259Z 14006KT 32/15 A2991 RMK A01 T03220146  RH  035%=      5-min Rain = 0
KDC1 252300Z 14006KT 32/14 A2991 RMK A01 T03180136  RH  033%=      5-min Rain = 0
KDC1 252301Z 15006KT 32/14 A2991 RMK A01 T03180144  RH  035%=      5-min Rain = 0
KDC1 252302Z 17006KT 32/11 A2991 RMK A01 T03180109  RH  028%=      5-min Rain = 0
KDC1 252303Z 19004KT 33/07 A2991 RMK A01 T03260073  RH  021%=      5-min Rain = 0
KDC1 252304Z 17001KT 34/05 A2991 RMK A01 T03360051  RH  017%=      5-min Rain = 0
KDC1 252305Z 10001KT 34/06 A2991 RMK A01 T03430056  RH  017%=      5-min Rain = 0
KDC1 252306Z 15003KT 35/07 A2991 RMK A01 T03470070  RH  018%=      5-min Rain = 0
KDC1 252307Z 17003KT 35/08 A2991 RMK A01 T03490080  RH  019%=      5-min Rain = 0
KDC1 252308Z 15004KT 35/09 A2991 RMK A01 T03500091  RH  021%=      5-min Rain = 0
KDC1 252309Z 15006KT 35/13 A2991 RMK A01 T03490131  RH  027%=      5-min Rain = 0
KDC1 252310Z 16006KT 35/13 A2991 RMK A01 T03460127  RH  027%=      5-min Rain = 0
KDC1 252311Z 16006KT 34/11 A2991 RMK A01 T03430105  RH  023%=      5-min Rain = 0
KDC1 252312Z 15006KT 34/09 A2991 RMK A01 T03420093  RH  022%=      5-min Rain = 0
KDC1 252313Z 15008KT 34/12 A2991 RMK A01 T03420115  RH  025%=      5-min Rain = 0
KDC1 252314Z 15007KT 34/13 A2991 RMK A01 T03390130  RH  028%=      5-min Rain = 0
KDC1 252315Z 15008KT 34/13 A2991 RMK A01 T03350126  RH  028%=      5-min Rain = 0
KDC1 252316Z 15007KT 33/13 A2991 RMK A01 T03340130  RH  029%=      5-min Rain = 0
KDC1 252317Z 14008KT 33/14 A2991 RMK A01 T03310139  RH  031%=      5-min Rain = 0
KDC1 252318Z 14008KT 33/15 A2991 RMK A01 T03290152  RH  035%=      5-min Rain = 0
KDC1 252319Z 15008KT 33/15 A2991 RMK A01 T03260153  RH  035%=      5-min Rain = 0
KDC1 252320Z 16006KT 33/14 A2991 RMK A01 T03250144  RH  034%=      5-min Rain = 0
KDC1 252321Z 16006KT 33/14 A2991 RMK A01 T03290138  RH  032%=      5-min Rain = 0
KDC1 252322Z 15006KT 33/13 A2991 RMK A01 T03340125  RH  028%=      5-min Rain = 0
KDC1 252323Z 15006KT 34/14 A2991 RMK A01 T03390136  RH  030%=      5-min Rain = 0
KDC1 252324Z 15006KT 34/13 A2991 RMK A01 T03400130  RH  028%=      5-min Rain = 0
KDC1 252325Z 14005KT 34/15 A2991 RMK A01 T03410148  RH  031%=      5-min Rain = 0
KDC1 252326Z 14006KT 34/15 A2991 RMK A01 T03400147  RH  031%=      5-min Rain = 0
KDC1 252327Z 14006KT 34/15 A2991 RMK A01 T03390149  RH  032%=      5-min Rain = 0
KDC1 252328Z 15007KT 34/16 A2991 RMK A01 T03400159  RH  034%=      5-min Rain = 0
KDC1 252329Z 15008KT 34/13 A2991 RMK A01 T03390133  RH  029%=      5-min Rain = 0
KDC1 252330Z 15007KT 34/12 A2991 RMK A01 T03430115  RH  025%=      5-min Rain = 0
KDC1 252331Z 15008KT 35/13 A299 RMK A01 T03460125  RH  026%=      5-min Rain = 0
KDC1 252332Z 15009KT 35/12 A299 RMK A01 T03460124  RH  026%=      5-min Rain = 0
KDC1 252333Z 15008KT 35/13 A299 RMK A01 T03450129  RH  027%=      5-min Rain = 0
KDC1 252334Z 15008KT 34/14 A299 RMK A01 T03420144  RH  031%=      5-min Rain = 0
KDC1 252335Z 16007KT 34/13 A299 RMK A01 T03400133  RH  029%=      5-min Rain = 0
KDC1 252336Z 15007KT 34/13 A299 RMK A01 T03410133  RH  028%=      5-min Rain = 0
KDC1 252337Z 15007KT 34/12 A299 RMK A01 T03430124  RH  027%=      5-min Rain = 0
KDC1 252338Z 15007KT 35/14 A299 RMK A01 T03460136  RH  028%=      5-min Rain = 0
KDC1 252339Z 15008KT 35/14 A299 RMK A01 T03450139  RH  029%=      5-min Rain = 0
KDC1 252340Z 15008KT 35/12 A299 RMK A01 T03450124  RH  026%=      5-min Rain = 0
KDC1 252341Z 14009KT 34/14 A299 RMK A01 T03430138  RH  029%=      5-min Rain = 0
KDC1 252342Z 14008KT 34/14 A299 RMK A01 T03420136  RH  029%=      5-min Rain = 0
KDC1 252343Z 15007KT 34/14 A299 RMK A01 T03410135  RH  029%=      5-min Rain = 0
KDC1 252344Z 14010G15KT 34/13 A299 RMK A01 T03390132  RH  029%=      5-min Rain = 0
KDC1 252345Z 15011KT 34/12 A299 RMK A01 T03390117  RH  026%=      5-min Rain = 0
KDC1 252346Z 17009KT 34/11 A299 RMK A01 T03390107  RH  025%=      5-min Rain = 0
KDC1 252347Z 16011KT 34/09 A299 RMK A01 T03400086  RH  021%=      5-min Rain = 0
KDC1 252348Z 15009KT 34/09 A299 RMK A01 T03430094  RH  022%=      5-min Rain = 0
KDC1 252349Z 15009KT 34/11 A299 RMK A01 T03410110  RH  024%=      5-min Rain = 0
KDC1 252350Z 15008KT 34/10 A299 RMK A01 T03390101  RH  023%=      5-min Rain = 0
KDC1 252351Z 14009KT 34/11 A299 RMK A01 T03370111  RH  025%=      5-min Rain = 0
KDC1 252352Z 14008KT 34/11 A299 RMK A01 T03350107  RH  025%=      5-min Rain = 0
KDC1 252353Z 13007KT 34/11 A299 RMK A01 T03350109  RH  025%=      5-min Rain = 0
KDC1 252354Z 13008KT 34/12 A299 RMK A01 T03350121  RH  027%=      5-min Rain = 0
KDC1 252355Z 11006KT 33/13 A299 RMK A01 T03340126  RH  028%=      5-min Rain = 0
KDC1 252356Z 12007KT 33/13 A299 RMK A01 T03330131  RH  029%=      5-min Rain = 0
KDC1 252357Z 13006KT 33/14 A299 RMK A01 T03330144  RH  032%=      5-min Rain = 0
KDC1 252358Z 12006KT 33/14 A299 RMK A01 T03320137  RH  031%=      5-min Rain = 0
KDC1 252359Z 13007KT 33/13 A299 RMK A01 T03330130  RH  029%=      5-min Rain = 0
KDC1 260000Z 13008KT 34/14 A299 RMK A01 T03350143  RH  031%=      5-min Rain = 0
KDC1 260001Z 13010KT 33/13 A299 RMK A01 T03320131  RH  030%=      5-min Rain = 0
KDC1 260002Z 14013KT 33/11 A299 RMK A01 T03310112  RH  026%=      5-min Rain = 0
KDC1 260003Z 15013G19KT 33/11 A2991 RMK A01 T03300106  RH  025%=      5-min Rain = 0
KDC1 260004Z 15015KT 33/10 A299 RMK A01 T03290103  RH  025%=      5-min Rain = 0
KDC1 260005Z 15013KT 33/12 A2991 RMK A01 T03280116  RH  027%=      5-min Rain = 0
KDC1 260006Z 15015KT 33/11 A299 RMK A01 T03260108  RH  026%=      5-min Rain = 0
KDC1 260007Z 16017KT 33/11 A299 RMK A01 T03280105  RH  025%=      5-min Rain = 0
KDC1 260008Z 16016KT 33/10 A299 RMK A01 T03310098  RH  024%=      5-min Rain = 0
KDC1 260009Z 16018KT 33/10 A299 RMK A01 T03320097  RH  024%=      5-min Rain = 0
KDC1 260010Z 16015KT 33/10 A299 RMK A01 T03320098  RH  024%=      5-min Rain = 0
KDC1 260011Z 16016KT 33/10 A2991 RMK A01 T03300098  RH  024%=      5-min Rain = 0
KDC1 260012Z 15016G21KT 33/10 A2991 RMK A01 T03290099  RH  024%=      5-min Rain = 0
KDC1 260013Z 16014KT 33/10 A2991 RMK A01 T03280098  RH  024%=      5-min Rain = 0
KDC1 260014Z 15013KT 33/10 A2991 RMK A01 T03270104  RH  026%=      5-min Rain = 0
KDC1 260015Z 15014KT 33/11 A2991 RMK A01 T03260113  RH  027%=      5-min Rain = 0
KDC1 260016Z 15015KT 32/11 A2991 RMK A01 T03230111  RH  027%=      5-min Rain = 0
KDC1 260017Z 15016KT 32/11 A2991 RMK A01 T03200108  RH  027%=      5-min Rain = 0
KDC1 260018Z 15014KT 32/10 A2991 RMK A01 T03190104  RH  027%=      5-min Rain = 0
KDC1 260019Z 15014KT 32/10 A2991 RMK A01 T03190104  RH  027%=      5-min Rain = 0
KDC1 260020Z 15014KT 32/10 A2991 RMK A01 T03200104  RH  027%=      5-min Rain = 0
KDC1 260021Z 15011KT 32/11 A2991 RMK A01 T03180113  RH  028%=      5-min Rain = 0
KDC1 260022Z 16011KT 32/12 A2991 RMK A01 T03150116  RH  029%=      5-min Rain = 0
KDC1 260023Z 15011KT 31/11 A2991 RMK A01 T03130113  RH  029%=      5-min Rain = 0
KDC1 260024Z 16012KT 31/11 A2991 RMK A01 T03110110  RH  029%=      5-min Rain = 0
KDC1 260025Z 16012KT 31/10 A2991 RMK A01 T03110104  RH  028%=      5-min Rain = 0
KDC1 260026Z 16011KT 31/10 A2991 RMK A01 T03120099  RH  027%=      5-min Rain = 0
KDC1 260027Z 16011KT 31/10 A2991 RMK A01 T03130098  RH  026%=      5-min Rain = 0
KDC1 260028Z 16011KT 32/10 A2991 RMK A01 T03150097  RH  026%=      5-min Rain = 0
KDC1 260029Z 16011KT 32/10 A2991 RMK A01 T03170096  RH  026%=      5-min Rain = 0
KDC1 260030Z 16010KT 32/10 A2991 RMK A01 T03190098  RH  026%=      5-min Rain = 0
KDC1 260031Z 17010KT 32/10 A2991 RMK A01 T03190099  RH  026%=      5-min Rain = 0
KDC1 260032Z 17008KT 32/10 A2991 RMK A01 T03200098  RH  025%=      5-min Rain = 0
KDC1 260033Z 17009G14KT 32/10 A2991 RMK A01 T03220097  RH  025%=      5-min Rain = 0
KDC1 260034Z 16011G16KT 32/09 A2991 RMK A01 T03240092  RH  024%=      5-min Rain = 0
KDC1 260035Z 17008KT 33/10 A2991 RMK A01 T03270099  RH  025%=      5-min Rain = 0
KDC1 260036Z 17009KT 33/10 A2991 RMK A01 T03250100  RH  025%=      5-min Rain = 0
KDC1 260037Z 16011KT 32/10 A2991 RMK A01 T03240095  RH  024%=      5-min Rain = 0
KDC1 260038Z 16008KT 32/10 A2991 RMK A01 T03240100  RH  025%=      5-min Rain = 0
KDC1 260039Z 17008KT 32/10 A2991 RMK A01 T03240101  RH  025%=      5-min Rain = 0
KDC1 260040Z 17009KT 32/10 A2991 RMK A01 T03240097  RH  025%=      5-min Rain = 0
KDC1 260041Z 17008KT 33/10 A2991 RMK A01 T03250098  RH  025%=      5-min Rain = 0
KDC1 260042Z 17009KT 33/10 A2992 RMK A01 T03250099  RH  025%=      5-min Rain = 0
KDC1 260043Z 17008KT 33/10 A2992 RMK A01 T03250097  RH  024%=      5-min Rain = 0
KDC1 260044Z 17009KT 33/10 A2992 RMK A01 T03250095  RH  024%=      5-min Rain = 0
KDC1 260045Z 17010KT 33/09 A2992 RMK A01 T03250092  RH  024%=      5-min Rain = 0
KDC1 260046Z 17009KT 33/10 A2992 RMK A01 T03250095  RH  024%=      5-min Rain = 0
KDC1 260047Z 17011KT 32/09 A2992 RMK A01 T03240093  RH  024%=      5-min Rain = 0
KDC1 260048Z 17010KT 32/09 A2992 RMK A01 T03230091  RH  024%=      5-min Rain = 0
KDC1 260049Z 17008G13KT 32/09 A2992 RMK A01 T03230091  RH  024%=      5-min Rain = 0
KDC1 260050Z 17008KT 32/10 A2992 RMK A01 T03240096  RH  025%=      5-min Rain = 0
KDC1 260051Z 16007KT 32/10 A2992 RMK A01 T03230096  RH  025%=      5-min Rain = 0
KDC1 260052Z 17005KT 32/10 A2992 RMK A01 T03230097  RH  025%=      5-min Rain = 0
KDC1 260053Z 17008KT 32/10 A2992 RMK A01 T03220098  RH  025%=      5-min Rain = 0
KDC1 260054Z 17007KT 32/10 A2992 RMK A01 T03210097  RH  025%=      5-min Rain = 0
KDC1 260055Z 17007G12KT 32/09 A2992 RMK A01 T03200094  RH  025%=      5-min Rain = 0
KDC1 260056Z 17008KT 32/09 A2992 RMK A01 T03190092  RH  025%=      5-min Rain = 0
KDC1 260057Z 18008KT 32/09 A2992 RMK A01 T03200091  RH  024%=      5-min Rain = 0
KDC1 260058Z 17008KT 32/09 A2992 RMK A01 T03190090  RH  024%=      5-min Rain = 0
KDC1 260059Z 17008KT 32/09 A2992 RMK A01 T03180087  RH  024%=      5-min Rain = 0
KDC1 260100Z 17007KT 32/09 A2992 RMK A01 T03180087  RH  024%=      5-min Rain = 0
KDC1 260101Z 17008KT 32/09 A2992 RMK A01 T03180088  RH  024%=      5-min Rain = 0
KDC1 260102Z 17008KT 32/09 A2992 RMK A01 T03170086  RH  024%=      5-min Rain = 0
KDC1 260103Z 17007KT 32/09 A2992 RMK A01 T03170086  RH  024%=      5-min Rain = 0
KDC1 260104Z 17009KT 32/08 A2992 RMK A01 T03170084  RH  024%=      5-min Rain = 0
KDC1 260105Z 17008KT 32/09 A2993 RMK A01 T03160087  RH  024%=      5-min Rain = 0
KDC1 260106Z 16007KT 32/09 A2993 RMK A01 T03150088  RH  024%=      5-min Rain = 0
KDC1 260107Z 17007KT 31/09 A2993 RMK A01 T03140092  RH  025%=      5-min Rain = 0
KDC1 260108Z 17008KT 31/09 A2993 RMK A01 T03130086  RH  025%=      5-min Rain = 0
KDC1 260109Z 16010KT 31/09 A2993 RMK A01 T03130089  RH  025%=      5-min Rain = 0
KDC1 260110Z 16009KT 31/09 A2993 RMK A01 T03130089  RH  025%=      5-min Rain = 0
KDC1 260111Z 16008KT 31/09 A2993 RMK A01 T03130090  RH  025%=      5-min Rain = 0
KDC1 260112Z 16010KT 31/09 A2993 RMK A01 T03130089  RH  025%=      5-min Rain = 0
KDC1 260113Z 16009KT 31/09 A2993 RMK A01 T03130085  RH  024%=      5-min Rain = 0
KDC1 260114Z 17008KT 31/09 A2993 RMK A01 T03130089  RH  025%=      5-min Rain = 0
KDC1 260115Z 16009KT 31/09 A2993 RMK A01 T03130086  RH  024%=      5-min Rain = 0
KDC1 260116Z 17008KT 31/08 A2993 RMK A01 T03130082  RH  024%=      5-min Rain = 0
KDC1 260117Z 17008KT 31/08 A2993 RMK A01 T03140081  RH  023%=      5-min Rain = 0
KDC1 260118Z 17007KT 32/08 A2993 RMK A01 T03150081  RH  023%=      5-min Rain = 0
KDC1 260119Z 17006KT 32/08 A2993 RMK A01 T03150083  RH  024%=      5-min Rain = 0
KDC1 260120Z 17006KT 32/08 A2993 RMK A01 T03150084  RH  024%=      5-min Rain = 0
KDC1 260121Z 17007KT 32/08 A2993 RMK A01 T03150084  RH  024%=      5-min Rain = 0
KDC1 260122Z 16007KT 31/09 A2993 RMK A01 T03130091  RH  025%=      5-min Rain = 0
KDC1 260123Z 17007KT 31/09 A2993 RMK A01 T03110089  RH  025%=      5-min Rain = 0
KDC1 260124Z 17006KT 31/09 A2993 RMK A01 T03090089  RH  026%=      5-min Rain = 0
KDC1 260125Z 17006KT 31/09 A2993 RMK A01 T03080086  RH  025%=      5-min Rain = 0
KDC1 260126Z 17006KT 31/08 A2993 RMK A01 T03090084  RH  025%=      5-min Rain = 0
KDC1 260127Z 17006KT 31/08 A2993 RMK A01 T03100084  RH  025%=      5-min Rain = 0
KDC1 260128Z 17006KT 31/09 A2993 RMK A01 T03100085  RH  025%=      5-min Rain = 0
KDC1 260129Z 17006KT 31/09 A2993 RMK A01 T03100088  RH  025%=      5-min Rain = 0
KDC1 260130Z 17007KT 31/09 A2993 RMK A01 T03070088  RH  025%=      5-min Rain = 0
KDC1 260131Z 17007KT 31/09 A2993 RMK A01 T03050087  RH  026%=      5-min Rain = 0
KDC1 260132Z 17007KT 30/08 A2993 RMK A01 T03040083  RH  025%=      5-min Rain = 0
KDC1 260133Z 17006KT 30/09 A2993 RMK A01 T03040087  RH  026%=      5-min Rain = 0
KDC1 260134Z 17006KT 30/09 A2993 RMK A01 T03020086  RH  026%=      5-min Rain = 0
KDC1 260135Z 16007KT 30/08 A2993 RMK A01 T03010083  RH  026%=      5-min Rain = 0
KDC1 260136Z 16008KT 30/09 A2993 RMK A01 T03010085  RH  026%=      5-min Rain = 0
KDC1 260137Z 16007KT 30/09 A2993 RMK A01 T02990086  RH  026%=      5-min Rain = 0
KDC1 260138Z 15007KT 30/09 A2993 RMK A01 T02970088  RH  027%=      5-min Rain = 0
KDC1 260139Z 15008KT 29/09 A2993 RMK A01 T02930090  RH  028%=      5-min Rain = 0
KDC1 260140Z 16008KT 29/09 A2993 RMK A01 T02900093  RH  029%=      5-min Rain = 0
KDC1 260141Z 16008KT 29/09 A2993 RMK A01 T02870094  RH  030%=      5-min Rain = 0
KDC1 260142Z 15008KT 28/09 A2994 RMK A01 T02840094  RH  030%=      5-min Rain = 0
KDC1 260143Z 15008KT 28/09 A2994 RMK A01 T02830093  RH  030%=      5-min Rain = 0
KDC1 260144Z 15008KT 28/10 A2994 RMK A01 T02820096  RH  031%=      5-min Rain = 0
KDC1 260145Z 15008KT 28/10 A2994 RMK A01 T02800099  RH  032%=      5-min Rain = 0
KDC1 260146Z 15008KT 28/10 A2994 RMK A01 T02760102  RH  034%=      5-min Rain = 0
KDC1 260147Z 14008KT 27/10 A2994 RMK A01 T02730103  RH  035%=      5-min Rain = 0
KDC1 260148Z 14008KT 27/10 A2994 RMK A01 T02700104  RH  035%=      5-min Rain = 0
KDC1 260149Z 14008KT 27/10 A2994 RMK A01 T02680104  RH  036%=      5-min Rain = 0
KDC1 260150Z 14008KT 27/10 A2994 RMK A01 T02660102  RH  036%=      5-min Rain = 0
KDC1 260151Z 14008KT 27/10 A2994 RMK A01 T02650101  RH  036%=      5-min Rain = 0
KDC1 260152Z 14008KT 26/10 A2994 RMK A01 T02640100  RH  036%=      5-min Rain = 0
KDC1 260153Z 14008KT 26/10 A2994 RMK A01 T02640099  RH  035%=      5-min Rain = 0
KDC1 260154Z 14008KT 26/10 A2994 RMK A01 T02640100  RH  036%=      5-min Rain = 0
KDC1 260155Z 14008KT 26/10 A2994 RMK A01 T02640101  RH  036%=      5-min Rain = 0
KDC1 260156Z 15008KT 26/10 A2994 RMK A01 T02640098  RH  035%=      5-min Rain = 0
KDC1 260157Z 15009KT 27/10 A2994 RMK A01 T02650098  RH  035%=      5-min Rain = 0
KDC1 260158Z 14008KT 27/10 A2994 RMK A01 T02650097  RH  035%=      5-min Rain = 0
KDC1 260159Z 14009KT 27/10 A2994 RMK A01 T02660096  RH  034%=      5-min Rain = 0
KDC1 260200Z 15008KT 27/09 A2994 RMK A01 T02660094  RH  034%=      5-min Rain = 0
KDC1 260201Z 15008KT 27/09 A2994 RMK A01 T02670092  RH  033%=      5-min Rain = 0
KDC1 260202Z 14009KT 27/09 A2994 RMK A01 T02680091  RH  033%=      5-min Rain = 0
KDC1 260203Z 13009KT 27/09 A2994 RMK A01 T02690092  RH  033%=      5-min Rain = 0
KDC1 260204Z 13009KT 27/10 A2994 RMK A01 T02680095  RH  034%=      5-min Rain = 0
KDC1 260205Z 13009KT 27/10 A2994 RMK A01 T02660095  RH  034%=      5-min Rain = 0
KDC1 260206Z 13010KT 27/09 A2994 RMK A01 T02650094  RH  034%=      5-min Rain = 0
KDC1 260207Z 13011KT 27/09 A2994 RMK A01 T02660088  RH  032%=      5-min Rain = 0
KDC1 260208Z 13011KT 27/09 A2994 RMK A01 T02700086  RH  031%=      5-min Rain = 0
KDC1 260209Z 13011KT 28/09 A2994 RMK A01 T02750086  RH  030%=      5-min Rain = 0
KDC1 260210Z 13011KT 28/09 A2994 RMK A01 T02770086  RH  030%=      5-min Rain = 0
KDC1 260211Z 14010KT 28/09 A2994 RMK A01 T02780088  RH  030%=      5-min Rain = 0
KDC1 260212Z 13010KT 28/09 A2994 RMK A01 T02780089  RH  031%=      5-min Rain = 0
KDC1 260213Z 14011KT 28/09 A2994 RMK A01 T02780089  RH  031%=      5-min Rain = 0
KDC1 260214Z 14010KT 28/09 A2994 RMK A01 T02780089  RH  030%=      5-min Rain = 0
KDC1 260215Z 14010KT 28/09 A2994 RMK A01 T02770089  RH  031%=      5-min Rain = 0
KDC1 260216Z 14010KT 28/09 A2994 RMK A01 T02770090  RH  031%=      5-min Rain = 0
KDC1 260217Z 13009KT 28/09 A2994 RMK A01 T02760090  RH  031%=      5-min Rain = 0
KDC1 260218Z 12010KT 28/09 A2994 RMK A01 T02750092  RH  032%=      5-min Rain = 0
KDC1 260219Z 12009KT 27/10 A2994 RMK A01 T02740095  RH  033%=      5-min Rain = 0
KDC1 260220Z 13010KT 27/10 A2994 RMK A01 T02720097  RH  033%=      5-min Rain = 0
KDC1 260221Z 13009KT 27/10 A2994 RMK A01 T02690098  RH  034%=      5-min Rain = 0
KDC1 260222Z 14010KT 27/10 A2994 RMK A01 T02660096  RH  034%=      5-min Rain = 0
KDC1 260223Z 14009KT 27/09 A2994 RMK A01 T02670090  RH  033%=      5-min Rain = 0
KDC1 260224Z 14008KT 27/09 A2994 RMK A01 T02680092  RH  033%=      5-min Rain = 0
KDC1 260225Z 14008KT 27/09 A2994 RMK A01 T02680093  RH  033%=      5-min Rain = 0
KDC1 260226Z 15007KT 27/09 A2995 RMK A01 T02670093  RH  033%=      5-min Rain = 0
KDC1 260227Z 16007KT 27/09 A2995 RMK A01 T02660092  RH  033%=      5-min Rain = 0
KDC1 260228Z 16006KT 27/08 A2995 RMK A01 T02670084  RH  031%=      5-min Rain = 0
KDC1 260229Z 16007KT 27/08 A2995 RMK A01 T02710083  RH  030%=      5-min Rain = 0
KDC1 260230Z 16007KT 27/08 A2995 RMK A01 T02740084  RH  030%=      5-min Rain = 0
KDC1 260231Z 16008KT 28/08 A2995 RMK A01 T02760081  RH  029%=      5-min Rain = 0
KDC1 260232Z 16008KT 28/08 A2995 RMK A01 T02780081  RH  029%=      5-min Rain = 0
KDC1 260233Z 15008KT 28/08 A2995 RMK A01 T02790079  RH  028%=      5-min Rain = 0
KDC1 260234Z 15008KT 28/08 A2995 RMK A01 T02790079  RH  028%=      5-min Rain = 0
KDC1 260235Z 16008KT 28/08 A2995 RMK A01 T02800079  RH  028%=      5-min Rain = 0
KDC1 260236Z 15008KT 28/08 A2995 RMK A01 T02800078  RH  028%=      5-min Rain = 0
KDC1 260237Z 16008KT 28/08 A2995 RMK A01 T02820079  RH  028%=      5-min Rain = 0
KDC1 260238Z 16008KT 28/08 A2995 RMK A01 T02820078  RH  028%=      5-min Rain = 0
KDC1 260239Z 16007KT 28/08 A2995 RMK A01 T02820077  RH  027%=      5-min Rain = 0
KDC1 260240Z 16007KT 28/08 A2995 RMK A01 T02830079  RH  028%=      5-min Rain = 0
KDC1 260241Z 16007KT 28/08 A2995 RMK A01 T02820079  RH  028%=      5-min Rain = 0
KDC1 260242Z 16007KT 28/08 A2995 RMK A01 T02800081  RH  028%=      5-min Rain = 0
KDC1 260243Z 16007KT 28/08 A2995 RMK A01 T02780079  RH  029%=      5-min Rain = 0
KDC1 260244Z 17006KT 28/08 A2995 RMK A01 T02760078  RH  028%=      5-min Rain = 0
KDC1 260245Z 17005KT 28/08 A2995 RMK A01 T02760076  RH  028%=      5-min Rain = 0
KDC1 260246Z 17005KT 28/08 A2995 RMK A01 T02760075  RH  028%=      5-min Rain = 0
KDC1 260247Z 17004KT 28/08 A2995 RMK A01 T02760077  RH  028%=      5-min Rain = 0
KDC1 260248Z 17005KT 28/08 A2995 RMK A01 T02760075  RH  028%=      5-min Rain = 0
KDC1 260249Z 17006KT 28/07 A2995 RMK A01 T02770072  RH  027%=      5-min Rain = 0
KDC1 260250Z 17006KT 28/07 A2995 RMK A01 T02790071  RH  027%=      5-min Rain = 0
KDC1 260251Z 16006KT 28/07 A2995 RMK A01 T02790072  RH  027%=      5-min Rain = 0
KDC1 260252Z 16006KT 28/07 A2995 RMK A01 T02790073  RH  027%=      5-min Rain = 0
KDC1 260253Z 16006KT 28/07 A2996 RMK A01 T02790073  RH  027%=      5-min Rain = 0
KDC1 260254Z 16007KT 28/07 A2996 RMK A01 T02780073  RH  027%=      5-min Rain = 0
KDC1 260255Z 16007KT 28/07 A2996 RMK A01 T02770073  RH  028%=      5-min Rain = 0
KDC1 260256Z 16007KT 28/07 A2996 RMK A01 T02760074  RH  028%=      5-min Rain = 0
KDC1 260257Z 16006KT 28/08 A2996 RMK A01 T02760075  RH  028%=      5-min Rain = 0
KDC1 260258Z 16008KT 27/08 A2996 RMK A01 T02740076  RH  029%=      5-min Rain = 0
KDC1 260259Z 16006KT 27/08 A2996 RMK A01 T02740076  RH  029%=      5-min Rain = 0
KDC1 260300Z 16007KT 27/08 A2996 RMK A01 T02720075  RH  029%=      5-min Rain = 0
KDC1 260301Z 15007KT 27/08 A2996 RMK A01 T02710075  RH  029%=      5-min Rain = 0
KDC1 260302Z 15007KT 27/08 A2996 RMK A01 T02710077  RH  029%=      5-min Rain = 0
KDC1 260303Z 15008KT 27/08 A2996 RMK A01 T02680077  RH  030%=      5-min Rain = 0
KDC1 260304Z 15008KT 27/08 A2996 RMK A01 T02670076  RH  030%=      5-min Rain = 0
KDC1 260305Z 15008KT 27/08 A2996 RMK A01 T02660077  RH  030%=      5-min Rain = 0
KDC1 260306Z 15008KT 26/08 A2996 RMK A01 T02640077  RH  031%=      5-min Rain = 0
KDC1 260307Z 15009KT 26/07 A2996 RMK A01 T02640073  RH  030%=      5-min Rain = 0
KDC1 260308Z 15008KT 27/08 A2996 RMK A01 T02650076  RH  030%=      5-min Rain = 0
KDC1 260309Z 15009KT 26/08 A2996 RMK A01 T02640077  RH  031%=      5-min Rain = 0
KDC1 260310Z 16009KT 26/07 A2996 RMK A01 T02640074  RH  030%=      5-min Rain = 0
KDC1 260311Z 16009KT 27/07 A2996 RMK A01 T02650074  RH  030%=      5-min Rain = 0
KDC1 260312Z 16009KT 27/07 A2996 RMK A01 T02660073  RH  029%=      5-min Rain = 0
KDC1 260313Z 16009KT 27/07 A2996 RMK A01 T02670073  RH  029%=      5-min Rain = 0
KDC1 260314Z 16009KT 27/07 A2996 RMK A01 T02670073  RH  029%=      5-min Rain = 0
KDC1 260315Z 16009KT 27/07 A2996 RMK A01 T02660073  RH  029%=      5-min Rain = 0
KDC1 260316Z 16008KT 27/07 A2996 RMK A01 T02660071  RH  029%=      5-min Rain = 0
KDC1 260317Z 16009KT 27/07 A2996 RMK A01 T02660072  RH  029%=      5-min Rain = 0
KDC1 260318Z 16008KT 27/07 A2996 RMK A01 T02660072  RH  029%=      5-min Rain = 0
KDC1 260319Z 16008KT 27/07 A2996 RMK A01 T02660073  RH  029%=      5-min Rain = 0
KDC1 260320Z 16007KT 27/07 A2997 RMK A01 T02650071  RH  029%=      5-min Rain = 0
KDC1 260321Z 16008KT 27/07 A2997 RMK A01 T02650073  RH  029%=      5-min Rain = 0
KDC1 260322Z 16007KT 27/07 A2997 RMK A01 T02650073  RH  030%=      5-min Rain = 0
KDC1 260323Z 17007KT 26/07 A2997 RMK A01 T02640073  RH  030%=      5-min Rain = 0
KDC1 260324Z 17007KT 26/07 A2997 RMK A01 T02640073  RH  030%=      5-min Rain = 0
KDC1 260325Z 17006KT 26/08 A2997 RMK A01 T02640075  RH  030%=      5-min Rain = 0
KDC1 260326Z 17005KT 26/08 A2997 RMK A01 T02640075  RH  030%=      5-min Rain = 0
KDC1 260327Z 17006KT 26/08 A2997 RMK A01 T02640077  RH  030%=      5-min Rain = 0
KDC1 260328Z 16006KT 26/08 A2997 RMK A01 T02630081  RH  031%=      5-min Rain = 0
KDC1 260329Z 16007KT 26/08 A2997 RMK A01 T02600082  RH  032%=      5-min Rain = 0
KDC1 260330Z 16007KT 26/08 A2997 RMK A01 T02580082  RH  033%=      5-min Rain = 0
KDC1 260331Z 16006KT 26/08 A2997 RMK A01 T02570081  RH  033%=      5-min Rain = 0
KDC1 260332Z 16006KT 26/08 A2997 RMK A01 T02560084  RH  033%=      5-min Rain = 0
KDC1 260333Z 16007KT 26/09 A2997 RMK A01 T02550085  RH  034%=      5-min Rain = 0
KDC1 260334Z 15007KT 25/08 A2997 RMK A01 T02540084  RH  034%=      5-min Rain = 0
KDC1 260335Z 15006KT 25/09 A2997 RMK A01 T02530085  RH  034%=      5-min Rain = 0
KDC1 260336Z 16006KT 25/08 A2997 RMK A01 T02520082  RH  034%=      5-min Rain = 0
KDC1 260337Z 16006KT 25/08 A2997 RMK A01 T02530077  RH  033%=      5-min Rain = 0
KDC1 260338Z 16007KT 26/08 A2997 RMK A01 T02570076  RH  032%=      5-min Rain = 0
KDC1 260339Z 16006KT 26/08 A2998 RMK A01 T02600076  RH  031%=      5-min Rain = 0
KDC1 260340Z 17006KT 26/08 A2998 RMK A01 T02620076  RH  031%=      5-min Rain = 0
KDC1 260341Z 17004KT 26/08 A2998 RMK A01 T02620076  RH  031%=      5-min Rain = 0
KDC1 260342Z 17005KT 26/08 A2998 RMK A01 T02630076  RH  031%=      5-min Rain = 0
KDC1 260343Z 17005KT 26/08 A2998 RMK A01 T02630075  RH  030%=      5-min Rain = 0
KDC1 260344Z 16005KT 26/08 A2998 RMK A01 T02640075  RH  030%=      5-min Rain = 0
KDC1 260345Z 17005KT 26/08 A2998 RMK A01 T02640076  RH  030%=      5-min Rain = 0
KDC1 260346Z 16006KT 26/08 A2998 RMK A01 T02640077  RH  031%=      5-min Rain = 0
KDC1 260347Z 16006KT 26/08 A2998 RMK A01 T02630077  RH  031%=      5-min Rain = 0
KDC1 260348Z 17005KT 26/08 A2998 RMK A01 T02630076  RH  030%=      5-min Rain = 0
KDC1 260349Z 17006KT 26/08 A2998 RMK A01 T02630076  RH  030%=      5-min Rain = 0
KDC1 260350Z 17006KT 26/08 A2998 RMK A01 T02640075  RH  030%=      5-min Rain = 0
KDC1 260351Z 17005KT 26/08 A2998 RMK A01 T02640075  RH  030%=      5-min Rain = 0
KDC1 260352Z 17006KT 27/07 A2998 RMK A01 T02650074  RH  030%=      5-min Rain = 0
KDC1 260353Z 18006KT 27/07 A2998 RMK A01 T02660074  RH  030%=      5-min Rain = 0
KDC1 260354Z 18006KT 27/07 A2998 RMK A01 T02670073  RH  029%=      5-min Rain = 0
KDC1 260355Z 18005KT 27/07 A2998 RMK A01 T02690072  RH  029%=      5-min Rain = 0
KDC1 260356Z 18006KT 27/07 A2998 RMK A01 T02700072  RH  028%=      5-min Rain = 0
KDC1 260357Z 18006KT 27/07 A2998 RMK A01 T02720071  RH  028%=      5-min Rain = 0
KDC1 260358Z 17005KT 27/07 A2998 RMK A01 T02740073  RH  028%=      5-min Rain = 0
KDC1 260359Z 17005KT 27/07 A2998 RMK A01 T02740073  RH  028%=      5-min Rain = 0
KDC1 260400Z 17005KT 27/07 A2998 RMK A01 T02740074  RH  028%=      5-min Rain = 0
KDC1 260401Z 17006KT 27/07 A2998 RMK A01 T02740074  RH  028%=      5-min Rain = 0
KDC1 260402Z 17005KT 27/08 A2998 RMK A01 T02740076  RH  029%=      5-min Rain = 0
KDC1 260403Z 17005KT 27/08 A2998 RMK A01 T02720075  RH  029%=      5-min Rain = 0
KDC1 260404Z 17004KT 27/08 A2998 RMK A01 T02710076  RH  029%=      5-min Rain = 0
KDC1 260405Z 17005KT 27/08 A2998 RMK A01 T02690076  RH  029%=      5-min Rain = 0
KDC1 260406Z 17004KT 27/08 A2998 RMK A01 T02680077  RH  030%=      5-min Rain = 0
KDC1 260407Z 17004KT 27/08 A2998 RMK A01 T02670080  RH  031%=      5-min Rain = 0
KDC1 260408Z 16005KT 26/08 A2998 RMK A01 T02640082  RH  032%=      5-min Rain = 0
KDC1 260409Z 16005KT 26/09 A2998 RMK A01 T02600085  RH  033%=      5-min Rain = 0
KDC1 260410Z 16005KT 26/08 A2998 RMK A01 T02570083  RH  033%=      5-min Rain = 0
KDC1 260411Z 16005KT 26/08 A2998 RMK A01 T02560080  RH  033%=      5-min Rain = 0
KDC1 260412Z 16005KT 26/08 A2998 RMK A01 T02560079  RH  032%=      5-min Rain = 0
KDC1 260413Z 16004KT 26/08 A2998 RMK A01 T02570077  RH  032%=      5-min Rain = 0
KDC1 260414Z 17003KT 26/08 A2998 RMK A01 T02580079  RH  032%=      5-min Rain = 0
KDC1 260415Z 16003KT 26/08 A2998 RMK A01 T02580080  RH  032%=      5-min Rain = 0
KDC1 260416Z 15004KT 26/09 A2999 RMK A01 T02570088  RH  034%=      5-min Rain = 0
KDC1 260417Z 15004KT 25/09 A2999 RMK A01 T02540086  RH  035%=      5-min Rain = 0
KDC1 260418Z 16004KT 25/09 A2999 RMK A01 T02530085  RH  035%=      5-min Rain = 0
KDC1 260419Z 17003KT 25/09 A2999 RMK A01 T02520088  RH  035%=      5-min Rain = 0
KDC1 260420Z 18002KT 25/08 A2999 RMK A01 T02500084  RH  035%=      5-min Rain = 0
KDC1 260421Z 18003KT 25/08 A2999 RMK A01 T02500081  RH  034%=      5-min Rain = 0
KDC1 260422Z 19003KT 25/08 A2999 RMK A01 T02500078  RH  033%=      5-min Rain = 0
KDC1 260423Z 21003KT 25/08 A2999 RMK A01 T02510077  RH  033%=      5-min Rain = 0
KDC1 260424Z 22003KT 25/08 A2999 RMK A01 T02520079  RH  033%=      5-min Rain = 0
KDC1 260425Z 23003KT 25/08 A2999 RMK A01 T02520081  RH  034%=      5-min Rain = 0
KDC1 260426Z 21002KT 25/08 A2999 RMK A01 T02520084  RH  034%=      5-min Rain = 0
KDC1 260427Z 20002KT 25/08 A2999 RMK A01 T02500083  RH  034%=      5-min Rain = 0
KDC1 260428Z 18002KT 25/08 A2999 RMK A01 T02500081  RH  034%=      5-min Rain = 0
KDC1 260429Z 19002KT 25/08 A2999 RMK A01 T02500082  RH  034%=      5-min Rain = 0
KDC1 260430Z 19002KT 25/08 A2999 RMK A01 T02500081  RH  034%=      5-min Rain = 0
KDC1 260431Z 17001KT 25/09 A2999 RMK A01 T02490085  RH  035%=      5-min Rain = 0
KDC1 260432Z 15001KT 25/09 A2999 RMK A01 T02460085  RH  036%=      5-min Rain = 0
KDC1 260433Z 00000KT 24/08 A30 RMK A01 T02430081  RH  036%=      5-min Rain = 0
KDC1 260434Z 10000KT 24/08 A30 RMK A01 T02400081  RH  036%=      5-min Rain = 0
KDC1 260435Z 10000KT 24/08 A30 RMK A01 T02390080  RH  036%=      5-min Rain = 0
KDC1 260436Z 07002KT 24/08 A30 RMK A01 T02370080  RH  037%=      5-min Rain = 0
KDC1 260437Z 07004KT 23/08 A30 RMK A01 T02340083  RH  038%=      5-min Rain = 0
KDC1 260438Z 07004KT 23/09 A30 RMK A01 T02330089  RH  040%=      5-min Rain = 0
KDC1 260439Z 09003KT 23/09 A30 RMK A01 T02320090  RH  040%=      5-min Rain = 0
KDC1 260440Z 10004KT 23/09 A30 RMK A01 T02320090  RH  040%=      5-min Rain = 0
KDC1 260441Z 11003KT 23/08 A30 RMK A01 T02320081  RH  038%=      5-min Rain = 0
KDC1 260442Z 10002KT 24/08 A30 RMK A01 T02360080  RH  037%=      5-min Rain = 0
KDC1 260443Z 11001KT 24/08 A30 RMK A01 T02380082  RH  037%=      5-min Rain = 0
KDC1 260444Z 11002KT 24/08 A30 RMK A01 T02380080  RH  036%=      5-min Rain = 0
KDC1 260445Z 11002KT 24/08 A30 RMK A01 T02390079  RH  036%=      5-min Rain = 0
KDC1 260446Z 10003KT 24/08 A30 RMK A01 T02400078  RH  035%=      5-min Rain = 0
KDC1 260447Z 11004KT 24/08 A30 RMK A01 T02430078  RH  035%=      5-min Rain = 0
KDC1 260448Z 11003KT 25/08 A30 RMK A01 T02460079  RH  034%=      5-min Rain = 0
KDC1 260449Z 12003KT 25/08 A30 RMK A01 T02470078  RH  034%=      5-min Rain = 0
KDC1 260450Z 12004KT 25/08 A30 RMK A01 T02490077  RH  033%=      5-min Rain = 0
KDC1 260451Z 12004KT 25/08 A30 RMK A01 T02500077  RH  033%=      5-min Rain = 0
KDC1 260452Z 12005KT 25/08 A30 RMK A01 T02510077  RH  033%=      5-min Rain = 0
KDC1 260453Z 13005KT 25/08 A30 RMK A01 T02510081  RH  034%=      5-min Rain = 0
KDC1 260454Z 13006KT 25/09 A30 RMK A01 T02490087  RH  036%=      5-min Rain = 0
KDC1 260455Z 13006KT 24/09 A30 RMK A01 T02440092  RH  038%=      5-min Rain = 0
KDC1 260456Z 14005KT 24/09 A30 RMK A01 T02380093  RH  040%=      5-min Rain = 0
KDC1 260457Z 14005KT 23/09 A30 RMK A01 T02340089  RH  039%=      5-min Rain = 0
KDC1 260458Z 14005KT 23/08 A30 RMK A01 T02330084  RH  038%=      5-min Rain = 0
KDC1 260459Z 14005KT 23/08 A30 RMK A01 T02340080  RH  037%=      5-min Rain = 0

Page generated in 0.132 seconds.